M I D A S
Marine Information and Data Acquisition System
Tripno 1883 of the Zeeleeuw from 2010-05-17 06:33:20 to 2010-05-17 16:14:12
Back to CruiseResearch ActivitiesStationsMapUnderway DataData graphs

EquipmentUnitsComment
TimeDGPSUTC
LatitudeDGPSDM.mWGS84
LongitudeDGPSDM.mWGS84
TemperatureSBE03/SBE38deg celciusITS90
ConductivitySBE21S/mITS90
SalinitySBE21 Practical Salinity Units
ChlorophylAChelsea fluorimeterg/lCalibrated in Aceton
Missing or incorrect values are displayed as -999
Sea surface data collected by the RV Zeeleeuw from 2010-05-17 06:19:13 to 2010-05-17 16:23:30
                                                                                    Next 1000 lines
Time Latitude Longitude Temperature Conductivity Salinity ChlorophylA
2010-05-17 06:19:22 51°13.662 2°55.96 18.822 0.111574 0.566659 -1.035392
2010-05-17 06:19:28 51°13.662 2°55.96 18.8154 0.112511 0.571609 -1.000568
2010-05-17 06:19:32 51°13.662 2°55.96 18.8107 0.112094 0.569417 -1.035392
2010-05-17 06:19:37 51°13.662 2°55.96 18.813 0.11199 0.568875 -1.035392
2010-05-17 06:19:42 51°13.662 2°55.96 18.8192 0.11199 0.568875 -1.035392
2010-05-17 06:19:47 51°13.662 2°55.961 18.8266 0.111678 0.567234 -1.035392
2010-05-17 06:19:52 51°13.662 2°55.96 18.8246 0.11147 0.56615 -1.035392
2010-05-17 06:19:57 51°13.662 2°55.96 18.8198 0.111782 0.567792 -1.000568
2010-05-17 06:20:02 51°13.662 2°55.96 18.8163 0.111782 0.5678 -1.000568
2010-05-17 06:20:07 51°13.662 2°55.96 18.8128 0.111886 0.568366 -1.035392
2010-05-17 06:20:12 51°13.662 2°55.96 18.8052 0.111886 0.568366 -1.035392
2010-05-17 06:20:17 51°13.662 2°55.96 18.801 0.112094 0.569467 -1.035392
2010-05-17 06:20:22 51°13.662 2°55.96 18.7982 0.11199 0.568925 -1.000568
2010-05-17 06:20:27 51°13.662 2°55.961 18.7968 0.11199 0.568933 -0.965744
2010-05-17 06:20:32 51°13.662 2°55.961 18.7939 0.11147 0.566191 -1.035392
2010-05-17 06:20:37 51°13.662 2°55.96 18.7951 0.111157 0.56455 -1.035392
2010-05-17 06:20:42 51°13.662 2°55.96 18.7925 0.111157 0.56455 -1.035392
2010-05-17 06:20:47 51°13.662 2°55.96 18.7888 0.111053 0.564 -1.035392
2010-05-17 06:20:52 51°13.662 2°55.96 18.7872 0.111262 0.565108 -1.000568
2010-05-17 06:20:57 51°13.662 2°55.96 18.7846 0.11199 0.568966 -1.000568
2010-05-17 06:21:02 51°13.662 2°55.96 18.7832 0.111886 0.568416 -1.000568
2010-05-17 06:21:07 51°13.662 2°55.96 18.7814 0.111678 0.567324 -1.000568
2010-05-17 06:21:12 51°13.662 2°55.96 18.7795 0.111678 0.567324 -1.000568
2010-05-17 06:21:17 51°13.662 2°55.96 18.7783 0.11147 0.56624 -1.000568
2010-05-17 06:21:22 51°13.662 2°55.961 18.7557 0.111262 0.565149 -1.000568
2010-05-17 06:21:27 51°13.662 2°55.961 18.7328 0.11199 0.56899 -1.035392
2010-05-17 06:21:32 51°13.662 2°55.961 18.7029 0.113552 0.577254 -1.035392
2010-05-17 06:21:37 51°13.662 2°55.961 18.7068 0.114176 0.580558 -0.965744
2010-05-17 06:21:42 51°13.662 2°55.961 18.7037 0.114176 0.580558 -0.965744
2010-05-17 06:21:47 51°13.661 2°55.961 18.6983 0.113864 0.578914 -1.035392
2010-05-17 06:21:52 51°13.661 2°55.96 18.7024 0.11428 0.581134 -1.000568
2010-05-17 06:21:57 51°13.661 2°55.96 18.7141 0.114488 0.582236 -1.000568
2010-05-17 06:22:02 51°13.661 2°55.959 18.7162 0.114072 0.580041 -1.035392
2010-05-17 06:22:07 51°13.661 2°55.96 18.7206 0.114384 0.581702 -1.035392
2010-05-17 06:22:12 51°13.661 2°55.96 18.7223 0.114384 0.581702 -1.035392
2010-05-17 06:22:17 51°13.661 2°55.96 18.7239 0.11428 0.58116 -1.035392
2010-05-17 06:22:22 51°13.661 2°55.96 18.7245 0.114488 0.58227 -1.000568
2010-05-17 06:22:27 51°13.661 2°55.96 18.7146 0.114384 0.581727 -1.000568
2010-05-17 06:22:32 51°13.661 2°55.96 18.7094 0.114488 0.58227 -0.965744
2010-05-17 06:22:37 51°13.661 2°55.96 18.7065 0.114801 0.583931 -1.035392
2010-05-17 06:22:42 51°13.661 2°55.96 18.7088 0.114801 0.583931 -1.035392
2010-05-17 06:22:47 51°13.661 2°55.96 18.717 0.114801 0.58394 -0.965744
2010-05-17 06:22:52 51°13.661 2°55.96 18.7193 0.115113 0.58561 -0.965744
2010-05-17 06:22:57 51°13.661 2°55.96 18.7208 0.114592 0.582863 -1.000568
2010-05-17 06:23:02 51°13.661 2°55.96 18.7222 0.115113 0.585618 -1.000568
2010-05-17 06:23:07 51°13.661 2°55.96 18.7247 0.115113 0.585635 -1.000568
2010-05-17 06:23:12 51°13.661 2°55.96 18.7307 0.115113 0.585635 -1.000568
2010-05-17 06:23:17 51°13.661 2°55.96 18.7308 0.115009 0.585084 -1.000568
2010-05-17 06:23:22 51°13.661 2°55.96 18.7261 0.114592 0.582888 -1.000568
2010-05-17 06:23:27 51°13.661 2°55.96 18.7203 0.114905 0.58455 -1.000568
2010-05-17 06:23:32 51°13.661 2°55.96 18.7275 0.115217 0.586212 -1.035392
2010-05-17 06:23:37 51°13.661 2°55.96 18.7307 0.114697 0.583465 -1.000568
2010-05-17 06:23:42 51°13.661 2°55.96 18.7341 0.114697 0.583465 -1.000568
2010-05-17 06:23:47 51°13.661 2°55.96 18.7342 0.114488 0.582362 -1.035392
2010-05-17 06:23:52 51°13.661 2°55.96 18.7355 0.114697 0.583473 -1.035392
2010-05-17 06:23:57 51°13.662 2°55.96 18.7362 0.114488 0.582379 -1.000568
2010-05-17 06:24:02 51°13.662 2°55.96 18.737 0.11428 0.581277 -1.035392
2010-05-17 06:24:07 51°13.662 2°55.96 18.7375 0.114801 0.584049 -1.000568
2010-05-17 06:24:12 51°13.662 2°55.96 18.739 0.114801 0.584049 -1.000568
2010-05-17 06:24:17 51°13.662 2°55.96 18.7364 0.11428 0.581302 -1.000568
2010-05-17 06:24:22 51°13.662 2°55.96 18.7355 0.114072 0.580209 -1.035392
2010-05-17 06:24:27 51°13.662 2°55.96 18.7338 0.114384 0.58187 -1.000568
2010-05-17 06:24:32 51°13.662 2°55.96 18.7334 0.114697 0.583524 -1.000568
2010-05-17 06:24:37 51°13.662 2°55.96 18.7225 0.115113 0.585728 -1.035392
2010-05-17 06:24:42 51°13.662 2°55.96 18.7221 0.115113 0.585728 -1.035392
2010-05-17 06:24:47 51°13.662 2°55.96 18.7244 0.115425 0.587391 -1.000568
2010-05-17 06:24:52 51°13.662 2°55.96 18.7222 0.114905 0.584643 -1.000568
2010-05-17 06:24:57 51°13.662 2°55.961 18.7139 0.115425 0.587399 -1.000568
2010-05-17 06:25:02 51°13.662 2°55.96 18.7219 0.115633 0.588511 -1.000568
2010-05-17 06:25:07 51°13.662 2°55.96 18.725 0.116154 0.591285 -1.000568
2010-05-17 06:25:12 51°13.662 2°55.96 18.7277 0.116154 0.591285 -1.000568
2010-05-17 06:25:17 51°13.662 2°55.96 18.7327 0.115529 0.587976 -1.000568
2010-05-17 06:25:22 51°13.662 2°55.96 18.7336 0.115009 0.585228 -1.000568
2010-05-17 06:25:27 51°13.662 2°55.96 18.7356 0.115009 0.585236 -1.035392
2010-05-17 06:25:32 51°13.662 2°55.96 18.734 0.114905 0.584694 -1.035392
2010-05-17 06:25:37 51°13.662 2°55.96 18.7341 0.115217 0.586356 -0.965744
2010-05-17 06:25:42 51°13.662 2°55.96 18.7199 0.115217 0.586356 -0.965744
2010-05-17 06:25:47 51°13.662 2°55.96 18.7302 0.115217 0.586365 -1.000568
2010-05-17 06:25:52 51°13.662 2°55.96 18.7331 0.116258 0.59188 -1.000568
2010-05-17 06:25:57 51°13.662 2°55.96 18.7371 0.114697 0.583617 -1.000568
2010-05-17 06:26:02 51°13.662 2°55.96 18.7258 0.115842 0.58969 -1.035392
2010-05-17 06:26:07 51°13.662 2°55.961 18.7102 0.115633 0.588587 -1.000568
2010-05-17 06:26:12 51°13.662 2°55.96 18.7188 0.115633 0.588587 -1.000568
2010-05-17 06:26:17 51°13.662 2°55.961 18.7181 0.116882 0.595208 -1.000568
2010-05-17 06:26:22 51°13.662 2°55.961 18.7266 0.115217 0.58639 -1.000568
2010-05-17 06:26:27 51°13.662 2°55.961 18.7248 0.115633 0.588613 -1.000568
2010-05-17 06:26:32 51°13.662 2°55.961 18.7255 0.11605 0.590819 -1.000568
2010-05-17 06:26:37 51°13.662 2°55.961 18.726 0.116258 0.59194 -1.000568
2010-05-17 06:26:42 51°13.662 2°55.961 18.7217 0.116258 0.59194 -1.000568
2010-05-17 06:26:47 51°13.662 2°55.961 18.723 0.115737 0.589182 -1.035392
2010-05-17 06:26:52 51°13.662 2°55.961 18.7269 0.116258 0.59194 -1.000568
2010-05-17 06:26:57 51°13.662 2°55.961 18.7287 0.11605 0.590845 -1.035392
2010-05-17 06:27:02 51°13.662 2°55.961 18.7302 0.115529 0.588095 -1.000568
2010-05-17 06:27:07 51°13.662 2°55.961 18.7315 0.116258 0.591966 -0.965744
2010-05-17 06:27:12 51°13.662 2°55.961 18.7332 0.116258 0.591966 -0.965744
2010-05-17 06:27:17 51°13.662 2°55.961 18.7342 0.115842 0.589767 -1.000568
2010-05-17 06:27:22 51°13.662 2°55.961 18.7339 0.115529 0.588121 -1.000568
2010-05-17 06:27:27 51°13.662 2°55.961 18.733 0.115425 0.587586 -1.035392
2010-05-17 06:27:32 51°13.662 2°55.961 18.733 0.115842 0.589784 -1.000568
2010-05-17 06:27:37 51°13.662 2°55.96 18.7338 0.115009 0.585381 -1.000568
2010-05-17 06:27:42 51°13.662 2°55.96 18.736 0.115009 0.585381 -1.000568
2010-05-17 06:27:47 51°13.662 2°55.96 18.738 0.115425 0.587595 -1.000568
2010-05-17 06:27:52 51°13.662 2°55.96 18.7401 0.115425 0.587603 -1.000568
2010-05-17 06:27:57 51°13.662 2°55.961 18.7394 0.115113 0.585949 -1.000568
2010-05-17 06:28:01 51°13.662 2°55.961 18.7382 0.115321 0.58706 -1.000568
2010-05-17 06:28:06 51°13.662 2°55.961 18.7397 0.115425 0.587621 -1.000568
2010-05-17 06:28:11 51°13.662 2°55.961 18.7361 0.115425 0.587621 -1.000568
2010-05-17 06:28:16 51°13.662 2°55.961 18.7323 0.115842 0.589836 -1.035392
2010-05-17 06:28:21 51°13.662 2°55.961 18.7328 0.115737 0.589284 -1.000568
2010-05-17 06:28:25 51°13.662 2°55.961 18.7195 0.115633 0.588741 -1.000568
2010-05-17 06:28:30 51°13.662 2°55.961 18.7209 0.115842 0.589844 -1.000568
2010-05-17 06:28:35 51°13.662 2°55.961 18.7313 0.116258 0.59206 -1.000568
2010-05-17 06:28:40 51°13.662 2°55.961 18.7344 0.116258 0.59206 -1.000568
2010-05-17 06:28:45 51°13.661 2°55.961 18.7367 0.115425 0.587655 -1.000568
2010-05-17 06:28:50 51°13.661 2°55.961 18.7379 0.115633 0.588758 -1.000568
2010-05-17 06:28:55 51°13.661 2°55.96 18.7389 0.115425 0.587672 -1.000568
2010-05-17 06:29:00 51°13.661 2°55.96 18.7388 0.115529 0.588223 -0.965744
2010-05-17 06:29:04 51°13.662 2°55.96 18.7386 0.115425 0.58768 -1.035392
2010-05-17 06:29:09 51°13.662 2°55.96 18.7386 0.115425 0.58768 -1.035392
2010-05-17 06:29:14 51°13.662 2°55.96 18.738 0.115529 0.58824 -0.965744
2010-05-17 06:29:19 51°13.662 2°55.96 18.7385 0.115529 0.588249 -1.035392
2010-05-17 06:29:24 51°13.662 2°55.96 18.7348 0.115009 0.585499 -1.070216
2010-05-17 06:29:29 51°13.662 2°55.96 18.7342 0.115529 0.588257 -1.035392
2010-05-17 06:29:34 51°13.662 2°55.96 18.7354 0.115321 0.587171 -1.000568
2010-05-17 06:29:39 51°13.662 2°55.96 18.7308 0.115321 0.587171 -1.000568
2010-05-17 06:29:44 51°13.662 2°55.96 18.7254 0.115842 0.589938 -0.965744
2010-05-17 06:29:49 51°13.662 2°55.96 18.7239 0.116154 0.591594 -1.000568
2010-05-17 06:29:53 51°13.662 2°55.96 18.7263 0.115946 0.590499 -1.035392
2010-05-17 06:29:58 51°13.662 2°55.96 18.7275 0.115946 0.59049 -1.000568
2010-05-17 06:30:03 51°13.662 2°55.961 18.7333 0.115946 0.590507 -1.035392
2010-05-17 06:30:08 51°13.662 2°55.961 18.7365 0.115946 0.590507 -1.035392
2010-05-17 06:30:13 51°13.662 2°55.961 18.7455 0.115529 0.588308 -1.000568
2010-05-17 06:30:18 51°13.662 2°55.961 18.7521 0.115946 0.590507 -1.000568
2010-05-17 06:30:23 51°13.662 2°55.961 18.7495 0.115425 0.587774 -1.035392
2010-05-17 06:30:28 51°13.662 2°55.961 18.7506 0.11605 0.591085 -1.035392
2010-05-17 06:30:33 51°13.662 2°55.961 18.7484 0.115217 0.586679 -1.000568
2010-05-17 06:30:37 51°13.662 2°55.961 18.7507 0.115217 0.586679 -1.000568
2010-05-17 06:30:43 51°13.662 2°55.961 18.7493 0.115737 0.589446 -1.035392
2010-05-17 06:30:48 51°13.662 2°55.961 18.7497 0.115529 0.588351 -1.035392
2010-05-17 06:30:53 51°13.663 2°55.961 18.7503 0.115425 0.587808 -1.000568
2010-05-17 06:30:57 51°13.663 2°55.961 18.7501 0.115425 0.587808 -1.000568
2010-05-17 06:31:03 51°13.662 2°55.961 18.7506 0.115425 0.587816 -1.035392
2010-05-17 06:31:08 51°13.662 2°55.961 18.7528 0.115425 0.587816 -1.035392
2010-05-17 06:31:13 51°13.662 2°55.961 18.7515 0.115633 0.58892 -1.000568
2010-05-17 06:31:17 51°13.662 2°55.961 18.7513 0.115217 0.58673 -1.000568
2010-05-17 06:31:23 51°13.662 2°55.961 18.7487 0.115737 0.589489 -1.000568
2010-05-17 06:31:28 51°13.662 2°55.96 18.7484 0.115321 0.58729 -1.000568
2010-05-17 06:31:33 51°13.662 2°55.96 18.7465 0.115633 0.588954 -1.035392
2010-05-17 06:31:37 51°13.662 2°55.96 18.7477 0.115633 0.588954 -1.035392
2010-05-17 06:31:43 51°13.662 2°55.96 18.7472 0.115633 0.588963 -1.000568
2010-05-17 06:31:48 51°13.661 2°55.96 18.7473 0.115113 0.586212 -1.035392
2010-05-17 06:31:53 51°13.662 2°55.96 18.7488 0.115529 0.588428 -1.000568
2010-05-17 06:31:58 51°13.662 2°55.96 18.7487 0.115321 0.587316 -1.000568
2010-05-17 06:32:03 51°13.663 2°55.96 18.7484 0.115529 0.588428 -1.035392
2010-05-17 06:32:08 51°13.663 2°55.96 18.7499 0.115529 0.588428 -1.035392
2010-05-17 06:32:13 51°13.662 2°55.96 18.7511 0.115737 0.58954 -1.035392
2010-05-17 06:32:18 51°13.662 2°55.96 18.7517 0.115633 0.588997 -1.000568
2010-05-17 06:32:23 51°13.662 2°55.96 18.7527 0.115529 0.588445 -1.000568
2010-05-17 06:32:28 51°13.662 2°55.96 18.7529 0.115737 0.589557 -1.000568
2010-05-17 06:32:33 51°13.662 2°55.96 18.7528 0.115529 0.588462 -1.000568
2010-05-17 06:32:38 51°13.662 2°55.96 18.751 0.115529 0.588462 -1.000568
2010-05-17 06:32:43 51°13.662 2°55.96 18.7527 0.115425 0.58791 -1.035392
2010-05-17 06:32:48 51°13.662 2°55.96 18.7539 0.115425 0.587919 -1.000568
2010-05-17 06:32:53 51°13.663 2°55.96 18.7516 0.115217 0.586832 -1.000568
2010-05-17 06:32:59 51°13.663 2°55.96 18.7579 0.115217 0.586832 -1.000568
2010-05-17 06:33:04 51°13.663 2°55.961 18.7586 0.114801 0.584625 -1.000568
2010-05-17 06:33:08 51°13.663 2°55.961 18.7613 0.114801 0.584625 -1.000568
2010-05-17 06:33:14 51°13.663 2°55.961 18.7622 0.115113 0.586297 -1.000568
2010-05-17 06:33:18 51°13.662 2°55.961 18.7633 0.114697 0.58409 -1.035392
2010-05-17 06:33:24 51°13.662 2°55.961 18.7633 0.115009 0.585762 -1.000568
2010-05-17 06:33:28 51°13.662 2°55.961 18.762 0.115113 0.586314 -1.000568
2010-05-17 06:33:34 51°13.662 2°55.961 18.7635 0.115113 0.586314 -1.000568
2010-05-17 06:33:38 51°13.662 2°55.961 18.7655 0.115113 0.586314 -1.000568
2010-05-17 06:33:44 51°13.662 2°55.961 18.765 0.114905 0.585219 -1.000568
2010-05-17 06:33:48 51°13.662 2°55.961 18.7655 0.114801 0.584684 -1.035392
2010-05-17 06:33:54 51°13.662 2°55.961 18.7671 0.114697 0.584132 -1.035392
2010-05-17 06:33:58 51°13.662 2°55.961 18.7672 0.114592 0.583589 -1.035392
2010-05-17 06:34:04 51°13.662 2°55.961 18.7684 0.115009 0.585805 -1.000568
2010-05-17 06:34:08 51°13.662 2°55.961 18.7722 0.115009 0.585805 -1.000568
2010-05-17 06:34:14 51°13.662 2°55.961 18.7709 0.114801 0.58471 -1.035392
2010-05-17 06:34:18 51°13.662 2°55.961 18.772 0.114592 0.583606 -0.965744
2010-05-17 06:34:24 51°13.662 2°55.961 18.772 0.114384 0.582511 -1.035392
2010-05-17 06:34:28 51°13.662 2°55.961 18.7715 0.114488 0.583071 -1.000568
2010-05-17 06:34:34 51°13.662 2°55.961 18.7686 0.114384 0.58252 -1.000568
2010-05-17 06:34:38 51°13.662 2°55.961 18.7695 0.114384 0.58252 -1.000568
2010-05-17 06:34:44 51°13.662 2°55.961 18.77 0.115009 0.585839 -1.035392
2010-05-17 06:34:48 51°13.662 2°55.961 18.7701 0.114592 0.58364 -1.035392
2010-05-17 06:34:54 51°13.662 2°55.961 18.7723 0.114905 0.585295 -1.000568
2010-05-17 06:34:58 51°13.662 2°55.961 18.7741 0.114592 0.583657 -1.000568
2010-05-17 06:35:04 51°13.662 2°55.961 18.778 0.114592 0.583657 -1.000568
2010-05-17 06:35:09 51°13.662 2°55.961 18.7804 0.114592 0.583657 -1.000568
2010-05-17 06:35:14 51°13.663 2°55.961 18.7805 0.114384 0.582562 -1.000568
2010-05-17 06:35:18 51°13.663 2°55.961 18.7798 0.114488 0.583114 -1.035392
2010-05-17 06:35:24 51°13.663 2°55.961 18.7783 0.114384 0.58257 -1.000568
2010-05-17 06:35:29 51°13.663 2°55.961 18.7759 0.114801 0.584786 -1.000568
2010-05-17 06:35:34 51°13.663 2°55.961 18.7767 0.114592 0.583691 -1.000568
2010-05-17 06:35:38 51°13.663 2°55.961 18.7757 0.114592 0.583691 -1.000568
2010-05-17 06:35:44 51°13.663 2°55.96 18.7916 0.114697 0.584251 -0.965744
2010-05-17 06:35:48 51°13.663 2°55.96 18.8164 0.114697 0.584251 -1.000568
2010-05-17 06:35:54 51°13.663 2°55.96 18.816 0.113552 0.578191 -1.000568
2010-05-17 06:35:58 51°13.663 2°55.96 18.8128 0.113656 0.578743 -1.035392
2010-05-17 06:36:04 51°13.663 2°55.96 18.8001 0.11376 0.579302 -1.035392
2010-05-17 06:36:08 51°13.663 2°55.96 18.7888 0.11376 0.579302 -1.035392
2010-05-17 06:36:14 51°13.663 2°55.96 18.7891 0.114384 0.582629 -1.035392
2010-05-17 06:36:18 51°13.663 2°55.96 18.7883 0.114488 0.583173 -1.035392
2010-05-17 06:36:24 51°13.663 2°55.96 18.7874 0.11428 0.582078 -1.000568
2010-05-17 06:36:28 51°13.663 2°55.96 18.7874 0.114176 0.581534 -1.035392
2010-05-17 06:36:34 51°13.663 2°55.96 18.787 0.113968 0.580439 -1.000568
2010-05-17 06:36:38 51°13.663 2°55.96 18.7864 0.113968 0.580439 -1.000568
2010-05-17 06:36:44 51°13.663 2°55.96 18.7852 0.113968 0.580448 -0.965744
2010-05-17 06:36:48 51°13.663 2°55.96 18.786 0.113968 0.580456 -1.000568
2010-05-17 06:36:54 51°13.663 2°55.96 18.7852 0.114176 0.581568 -1.000568
2010-05-17 06:36:58 51°13.663 2°55.96 18.7865 0.114072 0.581008 -1.000568
2010-05-17 06:37:04 51°13.663 2°55.96 18.7891 0.11376 0.57937 -1.035392
2010-05-17 06:37:08 51°13.663 2°55.96 18.7888 0.11376 0.57937 -1.035392
2010-05-17 06:37:14 51°13.663 2°55.96 18.7898 0.113968 0.580481 -1.000568
2010-05-17 06:37:18 51°13.663 2°55.96 18.7877 0.113864 0.57993 -1.035392
2010-05-17 06:37:24 51°13.663 2°55.96 18.776 0.113968 0.58049 -1.000568
2010-05-17 06:37:28 51°13.663 2°55.96 18.7727 0.114592 0.583809 -1.000568
2010-05-17 06:37:34 51°13.663 2°55.961 18.7771 0.115529 0.588778 -1.035392
2010-05-17 06:37:38 51°13.663 2°55.961 18.7795 0.115529 0.588778 -1.035392
2010-05-17 06:37:44 51°13.663 2°55.961 18.7788 0.115217 0.58713 -1.000568
2010-05-17 06:37:48 51°13.663 2°55.961 18.7776 0.114905 0.585482 -1.035392
2010-05-17 06:37:54 51°13.663 2°55.961 18.7774 0.114697 0.584387 -1.000568
2010-05-17 06:37:58 51°13.663 2°55.961 18.7805 0.114697 0.584378 -1.000568
2010-05-17 06:38:04 51°13.663 2°55.961 18.783 0.114488 0.5833 -1.035392
2010-05-17 06:38:08 51°13.663 2°55.961 18.7847 0.114488 0.5833 -1.035392
2010-05-17 06:38:14 51°13.663 2°55.961 18.7837 0.114697 0.584404 -1.000568
2010-05-17 06:38:19 51°13.663 2°55.961 18.78 0.114488 0.583308 -1.035392
2010-05-17 06:38:24 51°13.663 2°55.961 18.7775 0.114592 0.583868 -1.000568
2010-05-17 06:38:29 51°13.663 2°55.961 18.7784 0.114697 0.58442 -1.000568
2010-05-17 06:38:34 51°13.663 2°55.961 18.7789 0.114592 0.583868 -1.000568
2010-05-17 06:38:39 51°13.662 2°55.96 18.7765 0.114592 0.583868 -1.000568
2010-05-17 06:38:44 51°13.662 2°55.96 18.7734 0.114697 0.584429 -1.000568
2010-05-17 06:38:48 51°13.662 2°55.96 18.7752 0.114697 0.584429 -1.035392
2010-05-17 06:38:54 51°13.662 2°55.96 18.7784 0.114697 0.584446 -1.000568
2010-05-17 06:38:58 51°13.662 2°55.96 18.7808 0.114592 0.583894 -1.000568
2010-05-17 06:39:04 51°13.662 2°55.96 18.7853 0.114697 0.584454 -1.035392
2010-05-17 06:39:09 51°13.662 2°55.96 18.7877 0.114697 0.584454 -1.035392
2010-05-17 06:39:14 51°13.662 2°55.96 18.7846 0.114176 0.581703 -0.965744
2010-05-17 06:39:18 51°13.662 2°55.96 18.7617 0.114592 0.583919 -1.000568
2010-05-17 06:39:24 51°13.662 2°55.96 18.7022 0.114488 0.583376 -1.000568
2010-05-17 06:39:28 51°13.662 2°55.959 18.6942 0.116154 0.592212 -1.000568
2010-05-17 06:39:34 51°13.662 2°55.958 18.7062 0.116674 0.594983 -1.000568
2010-05-17 06:39:38 51°13.663 2°55.957 18.6299 0.116674 0.594983 -1.000568
2010-05-17 06:39:44 51°13.664 2°55.954 18.6104 0.117819 0.601073 -1.000568
2010-05-17 06:39:48 51°13.664 2°55.952 18.714 0.11657 0.594439 -1.035392
2010-05-17 06:39:54 51°13.665 2°55.948 18.7588 0.117299 0.598317 -1.035392
2010-05-17 06:39:59 51°13.666 2°55.944 18.7493 0.116778 0.595562 -1.035392
2010-05-17 06:40:05 51°13.668 2°55.94 18.7487 0.11657 0.594465 -1.035392
2010-05-17 06:40:10 51°13.669 2°55.935 18.746 0.11657 0.594465 -1.035392
2010-05-17 06:40:16 51°13.671 2°55.929 18.7292 0.117091 0.597229 -1.000568
2010-05-17 06:40:22 51°13.673 2°55.922 18.7395 0.11657 0.594482 -1.000568
2010-05-17 06:40:27 51°13.674 2°55.916 18.7168 0.117403 0.598904 -1.035392
2010-05-17 06:40:32 51°13.676 2°55.91 18.7276 0.116987 0.596702 -1.000568
2010-05-17 06:40:38 51°13.677 2°55.902 18.773 0.116987 0.59671 -1.000568
2010-05-17 06:40:42 51°13.679 2°55.896 18.7632 0.116987 0.59671 -1.000568
2010-05-17 06:40:48 51°13.68 2°55.887 18.7443 0.116674 0.595061 -1.000568
2010-05-17 06:40:52 51°13.681 2°55.881 18.757 0.116674 0.595069 -1.000568
2010-05-17 06:40:58 51°13.683 2°55.871 18.7727 0.115842 0.590657 -1.000568
2010-05-17 06:41:02 51°13.683 2°55.864 18.7722 0.116987 0.596745 -1.035392
2010-05-17 06:41:08 51°13.685 2°55.854 18.8039 0.116362 0.59342 -1.000568
2010-05-17 06:41:13 51°13.686 2°55.846 18.8101 0.116362 0.59342 -1.000568
2010-05-17 06:41:18 51°13.687 2°55.837 18.8066 0.115321 0.587904 -1.035392
2010-05-17 06:41:22 51°13.688 2°55.831 18.8124 0.114384 0.582934 -1.000568
2010-05-17 06:41:28 51°13.689 2°55.821 18.7937 0.113864 0.580182 -1.035392
2010-05-17 06:41:33 51°13.69 2°55.813 18.791 0.114801 0.585159 -1.000568
2010-05-17 06:41:38 51°13.691 2°55.805 18.7966 0.113968 0.580751 -1.000568
2010-05-17 06:41:42 51°13.692 2°55.799 18.8063 0.113968 0.580751 -1.000568
2010-05-17 06:41:48 51°13.693 2°55.79 18.795 0.114488 0.58352 -1.035392
2010-05-17 06:41:53 51°13.694 2°55.782 18.8047 0.113552 0.578552 -1.000568
2010-05-17 06:41:56 51°13.695 2°55.778 18.8155 0.114072 0.581311 -1.000568
2010-05-17 06:42:02 51°13.696 2°55.77 18.8193 0.113343 0.577456 -1.000568
2010-05-17 06:42:06 51°13.696 2°55.765 18.8287 0.113447 0.578008 -1.070216
2010-05-17 06:42:12 51°13.697 2°55.761 18.844 0.113447 0.578008 -1.070216
2010-05-17 06:42:17 51°13.698 2°55.759 18.8424 0.112094 0.570853 -1.000568
2010-05-17 06:42:22 51°13.698 2°55.758 18.8341 0.108868 0.553765 -0.965744
2010-05-17 06:42:26 51°13.699 2°55.758 18.8312 0.111262 0.566459 -0.965744
2010-05-17 06:42:31 51°13.7 2°55.759 18.8335 0.110325 0.561516 -1.035392
2010-05-17 06:42:36 51°13.701 2°55.76 18.8293 0.111678 0.568706 -1.000568
2010-05-17 06:42:40 51°13.701 2°55.761 18.7678 0.111678 0.568706 -1.000568
2010-05-17 06:42:45 51°13.702 2°55.762 18.7289 0.111262 0.566517 -1.000568
2010-05-17 06:42:50 51°13.703 2°55.762 18.706 0.114697 0.584726 -1.035392
2010-05-17 06:42:54 51°13.703 2°55.762 18.7456 0.114592 0.584199 -1.035392
2010-05-17 06:42:59 51°13.703 2°55.761 18.7487 0.114592 0.58419 -1.000568
2010-05-17 06:43:04 51°13.703 2°55.76 18.7616 0.115321 0.588049 -1.000568
2010-05-17 06:43:09 51°13.702 2°55.758 18.7679 0.115321 0.588049 -1.000568
2010-05-17 06:43:14 51°13.701 2°55.757 18.8035 0.114592 0.584182 -1.035392
2010-05-17 06:43:19 51°13.699 2°55.754 18.7808 0.114801 0.585287 -1.000568
2010-05-17 06:43:24 51°13.698 2°55.752 18.7993 0.114801 0.585278 -1.000568
2010-05-17 06:43:29 51°13.696 2°55.749 18.8077 0.114488 0.58363 -1.035392
2010-05-17 06:43:34 51°13.695 2°55.746 18.7812 0.113031 0.575901 -1.035392
2010-05-17 06:43:41 51°13.692 2°55.743 18.8128 0.113031 0.575901 -1.035392
2010-05-17 06:43:46 51°13.691 2°55.741 18.8375 0.112719 0.574254 -1.035392
2010-05-17 06:43:52 51°13.691 2°55.74 18.8725 0.112407 0.572599 -1.000568
2010-05-17 06:43:57 51°13.691 2°55.74 18.8715 0.111262 0.566525 -1.000568
2010-05-17 06:44:02 51°13.692 2°55.74 18.9294 0.109804 0.558818 -1.000568
2010-05-17 06:44:08 51°13.695 2°55.74 18.929 0.109284 0.55608 -1.035392
2010-05-17 06:44:13 51°13.697 2°55.74 18.9042 0.109284 0.55608 -1.035392
2010-05-17 06:44:18 51°13.699 2°55.74 18.9036 0.108451 0.5517 -1.000568
2010-05-17 06:44:22 51°13.702 2°55.739 18.8979 0.108659 0.552825 -1.000568
2010-05-17 06:44:27 51°13.705 2°55.737 18.8976 0.109284 0.556129 -1.000568
2010-05-17 06:44:32 51°13.708 2°55.735 18.925 0.108243 0.550647 -1.000568
2010-05-17 06:44:37 51°13.712 2°55.733 18.9412 0.107931 0.548995 -1.035392
2010-05-17 06:44:42 51°13.716 2°55.728 18.9489 0.107931 0.548995 -1.035392
2010-05-17 06:44:46 51°13.719 2°55.724 18.879 0.105537 0.536345 -1.000568
2010-05-17 06:44:51 51°13.724 2°55.719 18.7134 0.105121 0.534147 -1.000568
2010-05-17 06:44:56 51°13.73 2°55.712 18.7022 0.10408 0.528661 -1.000568
2010-05-17 06:45:01 51°13.737 2°55.706 18.6975 0.110533 0.562756 -1.000568
2010-05-17 06:45:06 51°13.744 2°55.698 18.673 0.106057 0.539078 -1.035392
2010-05-17 06:45:10 51°13.75 2°55.692 18.712 0.106057 0.539078 -1.035392
2010-05-17 06:45:14 51°13.757 2°55.686 18.6922 0.109804 0.558883 -1.000568
2010-05-17 06:45:20 51°13.768 2°55.676 18.7177 0.106578 0.541828 -0.965744
2010-05-17 06:45:25 51°13.777 2°55.668 18.5952 0.10918 0.555594 -1.035392
2010-05-17 06:45:29 51°13.786 2°55.661 18.5572 0.109284 0.556169 -1.000568
2010-05-17 06:45:34 51°13.796 2°55.652 18.4725 0.110013 0.560034 -1.035392
2010-05-17 06:45:39 51°13.807 2°55.644 18.4836 0.110013 0.560034 -1.035392
2010-05-17 06:45:44 51°13.818 2°55.636 18.5111 0.110637 0.563348 -1.000568
2010-05-17 06:45:49 51°13.83 2°55.627 18.5225 0.11147 0.567776 -1.035392
2010-05-17 06:45:54 51°13.842 2°55.619 18.5249 0.110741 0.563924 -1.035392
2010-05-17 06:45:58 51°13.852 2°55.612 18.4655 0.110013 0.56009 -1.000568
2010-05-17 06:46:04 51°13.866 2°55.602 18.4427 0.111262 0.566706 -1.035392
2010-05-17 06:46:09 51°13.879 2°55.594 18.3747 0.111262 0.566706 -1.035392
2010-05-17 06:46:14 51°13.892 2°55.586 18.4791 0.111886 0.570023 -1.000568
2010-05-17 06:46:19 51°13.905 2°55.579 17.3747 0.112823 0.57499 -1.035392
2010-05-17 06:46:24 51°13.918 2°55.572 15.7747 0.111157 0.566171 -1.000568
2010-05-17 06:46:29 51°13.932 2°55.565 15.2244 2.175003 13.463451 -1.000568
2010-05-17 06:46:34 51°13.945 2°55.557 14.34 2.178368 13.492455 -0.896096
2010-05-17 06:46:39 51°13.958 2°55.55 13.6491 2.178368 13.492455 -0.896096
2010-05-17 06:46:44 51°13.971 2°55.542 13.3354 2.563398 16.308818 -0.478207
2010-05-17 06:46:50 51°13.987 2°55.533 12.9095 4.090916 28.154967 -0.58268
2010-05-17 06:46:54 51°13.998 2°55.527 12.6483 4.18294 29.856504 -0.617504
2010-05-17 06:46:59 51°14.011 2°55.52 12.6796 4.124395 30.160982 -0.443383
2010-05-17 06:47:04 51°14.024 2°55.513 12.5257 3.815328 28.689403 0.009329
2010-05-17 06:47:10 51°14.04 2°55.503 12.3653 3.815328 28.689403 0.009329
2010-05-17 06:47:14 51°14.05 2°55.496 12.2855 3.728858 28.593656 0.601338
2010-05-17 06:47:19 51°14.063 2°55.487 12.2702 3.644823 28.557352 1.054051
2010-05-17 06:47:24 51°14.076 2°55.477 12.1978 3.516094 28.049879 1.297819
2010-05-17 06:47:29 51°14.088 2°55.467 12.2284 2.876478 22.881869 1.437116
2010-05-17 06:47:34 51°14.101 2°55.456 12.1868 3.436934 28.123872 1.437116
2010-05-17 06:47:38 51°14.11 2°55.447 12.188 3.436934 28.123872 1.437116
2010-05-17 06:47:44 51°14.126 2°55.434 12.1672 3.353769 27.624756 1.47194
2010-05-17 06:47:49 51°14.138 2°55.422 12.1407 3.343021 27.719494 1.47194
2010-05-17 06:47:54 51°14.151 2°55.411 12.1725 3.322365 27.677693 1.47194
2010-05-17 06:47:59 51°14.163 2°55.399 12.17 3.305609 27.640506 1.402292
2010-05-17 06:48:04 51°14.175 2°55.386 12.1257 3.293489 27.589741 1.402292
2010-05-17 06:48:09 51°14.188 2°55.374 12.1062 3.293489 27.589741 1.402292
2010-05-17 06:48:14 51°14.201 2°55.362 12.1208 3.282213 27.536399 1.332643
2010-05-17 06:48:19 51°14.214 2°55.35 12.117 3.271359 27.481714 1.297819
2010-05-17 06:48:24 51°14.226 2°55.337 12.0817 3.253654 27.35124 1.367467
2010-05-17 06:48:29 51°14.239 2°55.324 12.1222 3.246067 27.305068 1.332643
2010-05-17 06:48:34 51°14.252 2°55.311 12.0789 3.236898 27.242425 1.332643
2010-05-17 06:48:39 51°14.265 2°55.297 12.0519 3.236898 27.242425 1.332643
2010-05-17 06:48:44 51°14.278 2°55.284 12.0328 3.23047 27.18995 1.367467
2010-05-17 06:48:49 51°14.291 2°55.27 12.0262 3.227414 27.1796 1.367467
2010-05-17 06:48:54 51°14.304 2°55.257 12.0415 3.223621 27.153883 1.332643
2010-05-17 06:48:59 51°14.317 2°55.243 12.0148 3.222356 27.156811 1.367467
2010-05-17 06:49:04 51°14.331 2°55.23 12.0111 3.222778 27.177164 1.332643
2010-05-17 06:49:09 51°14.345 2°55.217 12.0126 3.222778 27.177164 1.332643
2010-05-17 06:49:14 51°14.359 2°55.205 12.0157 3.225834 27.215313 1.367467
2010-05-17 06:49:19 51°14.373 2°55.194 11.9988 3.23005 27.262607 1.402292
2010-05-17 06:49:24 51°14.388 2°55.183 12.0243 3.236689 27.342278 1.437116
2010-05-17 06:49:28 51°14.4 2°55.174 11.9894 3.242907 27.426731 1.437116
2010-05-17 06:49:34 51°14.417 2°55.161 11.9677 3.249652 27.490984 1.47194
2010-05-17 06:49:39 51°14.431 2°55.148 11.9464 3.249652 27.490984 1.47194
2010-05-17 06:49:44 51°14.445 2°55.135 11.9532 3.255554 27.55832 1.47194
2010-05-17 06:49:49 51°14.459 2°55.121 11.9608 3.261245 27.617976 1.541588
2010-05-17 06:49:54 51°14.473 2°55.106 11.962 3.269044 27.702071 1.506764
2010-05-17 06:49:59 51°14.487 2°55.092 11.927 3.275156 27.762878 1.576412
2010-05-17 06:50:04 51°14.501 2°55.077 11.9393 3.282534 27.833253 1.611236
2010-05-17 06:50:09 51°14.515 2°55.061 11.9359 3.282534 27.833253 1.611236
2010-05-17 06:50:14 51°14.529 2°55.045 11.9286 3.291281 27.924122 1.680884
2010-05-17 06:50:18 51°14.54 2°55.032 11.9265 3.304351 28.073343 1.715708
2010-05-17 06:50:24 51°14.555 2°55.009 11.9136 3.313415 28.166872 1.715708
2010-05-17 06:50:28 51°14.565 2°54.992 11.9198 3.319949 28.236079 1.785356
2010-05-17 06:50:34 51°14.58 2°54.967 11.9223 3.327538 28.314084 1.750532
2010-05-17 06:50:39 51°14.594 2°54.948 11.923 3.327538 28.314084 1.750532
2010-05-17 06:50:44 51°14.609 2°54.933 11.9482 3.332597 28.36771 1.750532
2010-05-17 06:50:49 51°14.624 2°54.917 11.9321 3.333124 28.373273 1.715708
2010-05-17 06:50:54 51°14.64 2°54.903 11.8943 3.335127 28.404679 1.680884
2010-05-17 06:50:58 51°14.652 2°54.891 11.841 3.335127 28.407664 1.715708
2010-05-17 06:51:04 51°14.67 2°54.872 11.8466 3.333862 28.395138 1.680884
2010-05-17 06:51:08 51°14.682 2°54.859 11.825 3.333862 28.395138 1.680884
2010-05-17 06:51:14 51°14.701 2°54.839 11.8314 3.335127 28.415428 1.680884
2010-05-17 06:51:18 51°14.713 2°54.827 11.7976 3.335127 28.411844 1.680884
2010-05-17 06:51:24 51°14.732 2°54.808 11.8028 3.340397 28.461564 1.750532
2010-05-17 06:51:28 51°14.744 2°54.796 11.809 3.348935 28.545736 1.924652
2010-05-17 06:51:34 51°14.763 2°54.777 11.8067 3.3658 28.720098 1.9943
2010-05-17 06:51:38 51°14.775 2°54.764 11.8023 3.3658 28.720098 1.9943
2010-05-17 06:51:44 51°14.794 2°54.746 11.8089 3.386987 28.936894 2.168421
2010-05-17 06:51:48 51°14.806 2°54.733 11.7949 3.406699 29.143213 2.203245
2010-05-17 06:51:54 51°14.824 2°54.713 11.8016 3.419981 29.287695 2.342541
2010-05-17 06:51:58 51°14.836 2°54.7 11.8 3.435161 29.442396 2.342541
2010-05-17 06:52:04 51°14.854 2°54.68 11.8021 3.44486 29.544549 2.377365
2010-05-17 06:52:08 51°14.866 2°54.666 11.8156 3.44486 29.544549 2.377365
2010-05-17 06:52:14 51°14.885 2°54.647 11.802 3.453399 29.627643 2.342541
2010-05-17 06:52:18 51°14.897 2°54.634 11.8028 3.460673 29.701247 2.272893
2010-05-17 06:52:24 51°14.916 2°54.617 11.8097 3.465628 29.754695 2.168421
2010-05-17 06:52:28 51°14.928 2°54.606 11.8018 3.470688 29.805405 2.063949
2010-05-17 06:52:34 51°14.948 2°54.59 11.8056 3.473113 29.828502 2.063949
2010-05-17 06:52:38 51°14.961 2°54.58 11.7899 3.473113 29.828502 2.063949
2010-05-17 06:52:44 51°14.979 2°54.565 11.7968 3.474272 29.839549 1.959476
2010-05-17 06:52:49 51°14.995 2°54.553 11.7855 3.474799 29.845832 1.959476
2010-05-17 06:52:54 51°15.012 2°54.541 11.7908 3.475432 29.85375 1.924652
2010-05-17 06:52:58 51°15.024 2°54.531 11.7943 3.475959 29.858773 1.959476
2010-05-17 06:53:04 51°15.044 2°54.519 11.794 3.476486 29.863165 2.029124
2010-05-17 06:53:08 51°15.057 2°54.511 11.7934 3.476486 29.863165 2.029124
2010-05-17 06:53:14 51°15.078 2°54.501 11.8085 3.478278 29.883399 2.029124
2010-05-17 06:53:18 51°15.091 2°54.495 11.7972 3.478911 29.892585 1.9943
2010-05-17 06:53:24 51°15.111 2°54.488 11.804 3.481652 29.923139 1.959476
2010-05-17 06:53:29 51°15.128 2°54.483 11.7869 3.483234 29.940747 1.924652
2010-05-17 06:53:34 51°15.145 2°54.479 11.8025 3.485658 29.96577 1.889828
2010-05-17 06:53:38 51°15.159 2°54.476 11.7985 3.485658 29.96577 1.889828
2010-05-17 06:53:44 51°15.18 2°54.472 11.8037 3.486713 29.975191 1.82018
2010-05-17 06:53:48 51°15.194 2°54.471 11.8059 3.487451 29.98223 1.785356
2010-05-17 06:53:54 51°15.215 2°54.469 11.8007 3.487767 29.983979 1.785356
2010-05-17 06:53:58 51°15.229 2°54.468 11.7915 3.488505 29.991651 1.785356
2010-05-17 06:54:04 51°15.25 2°54.466 11.7809 3.489454 30.000701 1.715708
2010-05-17 06:54:08 51°15.264 2°54.466 11.7786 3.489454 30.000701 1.715708
2010-05-17 06:54:14 51°15.286 2°54.465 11.7816 3.489664 30.00081 1.680884
2010-05-17 06:54:18 51°15.3 2°54.464 11.7747 3.489348 29.99716 1.611236
2010-05-17 06:54:24 51°15.321 2°54.463 11.7748 3.490086 30.006735 1.576412
2010-05-17 06:54:28 51°15.335 2°54.46 11.7639 3.489875 30.003456 1.506764
2010-05-17 06:54:34 51°15.357 2°54.457 11.7695 3.491246 30.019701 1.506764
2010-05-17 06:54:38 51°15.371 2°54.454 11.7683 3.491246 30.019701 1.506764
2010-05-17 06:54:44 51°15.393 2°54.45 11.765 3.493038 30.040609 1.437116
2010-05-17 06:54:48 51°15.407 2°54.446 11.7622 3.494198 30.056123 1.47194
2010-05-17 06:54:54 51°15.429 2°54.441 11.7669 3.494409 30.061949 1.47194
2010-05-17 06:54:58 51°15.443 2°54.438 11.7624 3.497572 30.097869 1.506764
2010-05-17 06:55:04 51°15.465 2°54.433 11.7599 3.498099 30.105449 1.437116
2010-05-17 06:55:08 51°15.479 2°54.429 11.7499 3.498099 30.105449 1.437116
2010-05-17 06:55:14 51°15.501 2°54.424 11.7612 3.499048 30.11897 1.47194
2010-05-17 06:55:18 51°15.516 2°54.421 11.7463 3.498837 30.117594 1.47194
2010-05-17 06:55:24 51°15.538 2°54.416 11.7415 3.498521 30.116484 1.402292
2010-05-17 06:55:28 51°15.553 2°54.413 11.73 3.497256 30.106949 1.367467
2010-05-17 06:55:34 51°15.575 2°54.408 11.7334 3.495042 30.087713 1.297819
2010-05-17 06:55:38 51°15.589 2°54.404 11.7256 3.495042 30.087713 1.297819
2010-05-17 06:55:44 51°15.611 2°54.399 11.7145 3.495569 30.092748 1.297819
2010-05-17 06:55:48 51°15.626 2°54.395 11.7092 3.494936 30.089253 1.297819
2010-05-17 06:55:54 51°15.648 2°54.39 11.6926 3.495147 30.094453 1.332643
2010-05-17 06:55:58 51°15.663 2°54.386 11.6919 3.492722 30.078929 1.332643
2010-05-17 06:56:04 51°15.684 2°54.38 11.6854 3.496202 30.112812 1.367467
2010-05-17 06:56:08 51°15.699 2°54.375 11.6697 3.496202 30.112812 1.367467
2010-05-17 06:56:14 51°15.719 2°54.37 11.6527 3.497256 30.132458 1.332643
2010-05-17 06:56:18 51°15.733 2°54.365 11.6463 3.498099 30.142437 1.47194
2010-05-17 06:56:24 51°15.753 2°54.36 11.6231 3.498943 30.158168 1.367467
2010-05-17 06:56:29 51°15.769 2°54.355 11.6121 3.500103 30.175015 1.506764
2010-05-17 06:56:34 51°15.785 2°54.35 11.5985 3.493355 30.116224 1.541588
2010-05-17 06:56:38 51°15.797 2°54.347 11.5916 3.493355 30.116224 1.541588
2010-05-17 06:56:44 51°15.814 2°54.342 11.5927 3.503477 30.221384 1.576412
2010-05-17 06:56:49 51°15.829 2°54.337 11.593 3.505269 30.249446 1.576412
2010-05-17 06:56:54 51°15.843 2°54.334 11.5825 3.507272 30.278909 1.64606
2010-05-17 06:56:59 51°15.857 2°54.331 11.567 3.508854 30.306282 1.680884
2010-05-17 06:57:04 51°15.87 2°54.328 11.5573 3.51149 30.34508 1.715708
2010-05-17 06:57:08 51°15.881 2°54.326 11.5594 3.51149 30.34508 1.715708
2010-05-17 06:57:14 51°15.897 2°54.324 11.5687 3.513071 30.368635 1.750532
2010-05-17 06:57:18 51°15.908 2°54.322 11.5546 3.513282 30.383573 1.715708
2010-05-17 06:57:24 51°15.923 2°54.32 11.5602 3.514864 30.407158 1.715708
2010-05-17 06:57:29 51°15.935 2°54.318 11.5554 3.512966 30.396696 1.64606
2010-05-17 06:57:34 51°15.947 2°54.317 11.5534 3.515707 30.430144 1.64606
2010-05-17 06:57:38 51°15.956 2°54.315 11.5567 3.515707 30.430144 1.64606
2010-05-17 06:57:44 51°15.969 2°54.313 11.559 3.515918 30.440591 1.611236
2010-05-17 06:57:48 51°15.978 2°54.311 11.5587 3.515497 30.44302 1.541588
2010-05-17 06:57:54 51°15.991 2°54.309 11.5534 3.515075 30.44156 1.576412
2010-05-17 06:57:58 51°15.999 2°54.307 11.5543 3.515075 30.446747 1.576412
2010-05-17 06:58:04 51°16.011 2°54.305 11.5582 3.514021 30.43726 1.541588
2010-05-17 06:58:08 51°16.019 2°54.303 11.5587 3.514021 30.43726 1.541588
2010-05-17 06:58:14 51°16.031 2°54.3 11.5571 3.51381 30.437827 1.576412
2010-05-17 06:58:18 51°16.039 2°54.299 11.5557 3.502635 30.333643 1.541588
2010-05-17 06:58:24 51°16.05 2°54.297 11.5525 3.512756 30.431581 1.611236
2010-05-17 06:58:28 51°16.058 2°54.295 11.5518 3.51265 30.430567 1.576412
2010-05-17 06:58:34 51°16.069 2°54.293 11.5492 3.509171 30.401005 1.576412
2010-05-17 06:58:38 51°16.077 2°54.291 11.55 3.509171 30.401005 1.576412
2010-05-17 06:58:44 51°16.088 2°54.289 11.5499 3.511174 30.417672 1.576412
2010-05-17 06:58:48 51°16.095 2°54.288 11.5478 3.509698 30.403481 1.611236
2010-05-17 06:58:54 51°16.106 2°54.285 11.5535 3.509909 30.406156 1.576412
2010-05-17 06:58:58 51°16.113 2°54.284 11.5521 3.509488 30.401454 1.576412
2010-05-17 06:59:04 51°16.124 2°54.282 11.5412 3.509699 30.405425 1.541588
2010-05-17 06:59:08 51°16.131 2°54.28 11.5463 3.509699 30.405425 1.541588
2010-05-17 06:59:14 51°16.141 2°54.278 11.5442 3.507379 30.387011 1.506764
2010-05-17 06:59:18 51°16.148 2°54.277 11.544 3.509382 30.405624 1.506764
2010-05-17 06:59:24 51°16.159 2°54.274 11.5414 3.509171 30.406836 1.47194
2010-05-17 06:59:28 51°16.166 2°54.273 11.5445 3.508961 30.403512 1.437116
2010-05-17 06:59:33 51°16.174 2°54.271 11.5384 3.509488 30.407933 1.332643
2010-05-17 06:59:38 51°16.183 2°54.269 11.5355 3.509488 30.407933 1.332643
2010-05-17 06:59:43 51°16.191 2°54.268 11.5348 3.507063 30.38656 1.402292
2010-05-17 06:59:48 51°16.199 2°54.266 11.5378 3.50643 30.38242 1.332643
2010-05-17 06:59:54 51°16.208 2°54.264 11.5389 3.508012 30.398924 1.367467
2010-05-17 06:59:58 51°16.214 2°54.262 11.535 3.508012 30.399572 1.332643
2010-05-17 07:00:03 51°16.221 2°54.26 11.5363 3.509593 30.416726 1.367467
2010-05-17 07:00:08 51°16.228 2°54.258 11.5363 3.509593 30.416726 1.367467
2010-05-17 07:00:13 51°16.235 2°54.256 11.5321 3.509277 30.414332 1.332643
2010-05-17 07:00:18 51°16.24 2°54.254 11.529 3.506958 30.393968 1.297819
2010-05-17 07:00:24 51°16.247 2°54.251 11.5298 3.503584 30.362816 1.262995
2010-05-17 07:00:28 51°16.251 2°54.248 11.5317 3.508012 30.406701 1.332643
2010-05-17 07:00:33 51°16.256 2°54.245 11.5293 3.505692 30.384391 1.297819
2010-05-17 07:00:38 51°16.26 2°54.242 11.5287 3.505692 30.384391 1.297819
2010-05-17 07:00:44 51°16.264 2°54.237 11.5287 3.505587 30.384673 1.193347
2010-05-17 07:00:48 51°16.266 2°54.235 11.5292 3.505903 30.387715 1.228171
2010-05-17 07:00:54 51°16.269 2°54.231 11.5302 3.508434 30.414001 1.228171
2010-05-17 07:00:58 51°16.271 2°54.228 11.533 3.505482 30.388194 1.193347
2010-05-17 07:01:03 51°16.273 2°54.225 11.5294 3.507169 30.406368 1.193347
2010-05-17 07:01:09 51°16.275 2°54.222 11.5228 3.507169 30.406368 1.193347
2010-05-17 07:01:14 51°16.277 2°54.22 11.5233 3.507696 30.41144 1.123699
2010-05-17 07:01:18 51°16.278 2°54.219 11.5241 3.507696 30.413386 1.158523
2010-05-17 07:01:24 51°16.279 2°54.216 11.5223 3.504849 30.385997 1.088875
2010-05-17 07:01:28 51°16.28 2°54.215 11.5239 3.506747 30.403608 1.088875
2010-05-17 07:01:34 51°16.282 2°54.212 11.5231 3.507379 30.409046 1.019227
2010-05-17 07:01:38 51°16.282 2°54.211 11.5266 3.507379 30.409046 1.019227
2010-05-17 07:01:44 51°16.284 2°54.209 11.5258 3.507274 30.409329 1.054051
2010-05-17 07:01:48 51°16.284 2°54.208 11.5268 3.507063 30.4073 1.054051
2010-05-17 07:01:54 51°16.286 2°54.206 11.5291 3.507063 30.411192 1.123699
2010-05-17 07:01:58 51°16.286 2°54.205 11.525 3.506747 30.406851 1.088875
2010-05-17 07:02:04 51°16.287 2°54.203 11.5229 3.505587 30.397636 1.054051
2010-05-17 07:02:08 51°16.288 2°54.202 11.5231 3.505587 30.397636 1.054051
2010-05-17 07:02:14 51°16.289 2°54.201 11.5263 3.506642 30.408431 1.019227
2010-05-17 07:02:18 51°16.29 2°54.2 11.5249 3.503795 30.379742 1.088875
2010-05-17 07:02:24 51°16.291 2°54.198 11.5258 3.506536 30.406767 1.054051
2010-05-17 07:02:28 51°16.292 2°54.197 11.5276 3.506536 30.406767 1.123699
2010-05-17 07:02:34 51°16.293 2°54.196 11.5269 3.506852 30.409162 1.088875
2010-05-17 07:02:38 51°16.293 2°54.195 11.5263 3.506852 30.409162 1.088875
2010-05-17 07:02:44 51°16.294 2°54.194 11.5255 3.505904 30.40068 1.054051
2010-05-17 07:02:48 51°16.295 2°54.193 11.5234 3.50622 30.405021 1.088875
2010-05-17 07:02:54 51°16.296 2°54.191 11.5223 3.505904 30.401977 1.088875
2010-05-17 07:02:58 51°16.296 2°54.19 11.5208 3.505376 30.396904 1.123699
2010-05-17 07:03:04 51°16.297 2°54.189 11.5246 3.506642 30.408431 1.088875
2010-05-17 07:03:08 51°16.298 2°54.188 11.5208 3.506642 30.408431 1.088875
2010-05-17 07:03:14 51°16.299 2°54.187 11.5196 3.505904 30.40068 1.088875
2010-05-17 07:03:18 51°16.299 2°54.186 11.524 3.50506 30.393861 1.088875
2010-05-17 07:03:24 51°16.3 2°54.184 11.5227 3.505904 30.402626 1.088875
2010-05-17 07:03:28 51°16.3 2°54.183 11.5208 3.504217 30.387689 1.054051
2010-05-17 07:03:34 51°16.301 2°54.182 11.5205 3.504849 30.393777 1.158523
2010-05-17 07:03:38 51°16.302 2°54.181 11.5217 3.504849 30.393777 1.158523
2010-05-17 07:03:44 51°16.302 2°54.18 11.5207 3.504322 30.389352 1.123699
2010-05-17 07:03:48 51°16.302 2°54.179 11.5182 3.505798 30.404855 1.158523
2010-05-17 07:03:54 51°16.303 2°54.177 11.5206 3.503479 30.381884 1.088875
2010-05-17 07:03:58 51°16.304 2°54.176 11.5186 3.504111 30.389268 1.158523
2010-05-17 07:04:04 51°16.304 2°54.174 11.5214 3.504428 30.391664 1.123699
2010-05-17 07:04:08 51°16.304 2°54.173 11.5212 3.504428 30.391664 1.123699
2010-05-17 07:04:14 51°16.305 2°54.172 11.5229 3.505271 30.399781 1.158523
2010-05-17 07:04:18 51°16.305 2°54.171 11.5221 3.500211 30.351081 1.123699
2010-05-17 07:04:24 51°16.306 2°54.17 11.5239 3.493569 30.287826 1.193347
2010-05-17 07:04:28 51°16.306 2°54.168 11.5215 3.487243 30.228273 1.123699
2010-05-17 07:04:34 51°16.306 2°54.167 11.52 3.493147 30.284415 1.193347
2010-05-17 07:04:38 51°16.307 2°54.166 11.5196 3.493147 30.284415 1.193347
2010-05-17 07:04:44 51°16.307 2°54.164 11.522 3.505166 30.400064 1.123699
2010-05-17 07:04:48 51°16.307 2°54.164 11.5217 3.505482 30.403108 1.158523
2010-05-17 07:04:54 51°16.308 2°54.162 11.5213 3.505693 30.405138 1.193347
2010-05-17 07:04:58 51°16.308 2°54.161 11.5225 3.503584 30.384195 1.158523
2010-05-17 07:05:04 51°16.308 2°54.159 11.5225 3.505587 30.402825 1.193347
2010-05-17 07:05:08 51°16.309 2°54.158 11.522 3.505587 30.402825 1.193347
2010-05-17 07:05:14 51°16.309 2°54.157 11.5196 3.506325 30.411226 1.158523
2010-05-17 07:05:19 51°16.309 2°54.155 11.5205 3.504639 30.395639 1.158523
2010-05-17 07:05:24 51°16.309 2°54.154 11.5239 3.505482 30.403757 1.158523
2010-05-17 07:05:28 51°16.309 2°54.153 11.5222 3.50369 30.387155 1.158523
2010-05-17 07:05:34 51°16.31 2°54.151 11.5212 3.504533 30.393975 1.158523
2010-05-17 07:05:38 51°16.31 2°54.15 11.521 3.504533 30.393975 1.158523
2010-05-17 07:05:44 51°16.31 2°54.149 11.5204 3.501476 30.366495 1.158523
2010-05-17 07:05:48 51°16.31 2°54.147 11.5224 3.505904 30.407816 1.193347
2010-05-17 07:05:54 51°16.31 2°54.146 11.5218 3.504428 30.394907 1.123699
2010-05-17 07:05:58 51°16.31 2°54.145 11.5212 3.505798 30.408748 1.158523
2010-05-17 07:06:04 51°16.31 2°54.143 11.5218 3.502425 30.37433 1.123699
2010-05-17 07:06:08 51°16.311 2°54.142 11.5227 3.502425 30.37433 1.123699
2010-05-17 07:06:14 51°16.311 2°54.14 11.5221 3.503584 30.38614 1.193347
2010-05-17 07:06:18 51°16.311 2°54.139 11.5214 3.505271 30.401727 1.193347
2010-05-17 07:06:24 51°16.311 2°54.137 11.5228 3.505693 30.405786 1.193347
2010-05-17 07:06:28 51°16.311 2°54.136 11.5274 3.504533 30.394624 1.158523
2010-05-17 07:06:34 51°16.311 2°54.135 11.524 3.504322 30.395189 1.158523
2010-05-17 07:06:38 51°16.311 2°54.133 11.5261 3.504322 30.395189 1.158523
2010-05-17 07:06:44 51°16.311 2°54.131 11.523 3.504322 30.393892 1.158523
2010-05-17 07:06:48 51°16.311 2°54.13 11.5253 3.499789 30.350261 1.158523
2010-05-17 07:06:54 51°16.311 2°54.129 11.5243 3.503795 30.388818 1.158523
2010-05-17 07:06:58 51°16.311 2°54.128 11.5242 3.500738 30.359393 1.158523
2010-05-17 07:07:04 51°16.311 2°54.126 11.5247 3.504639 30.396287 1.193347
2010-05-17 07:07:08 51°16.311 2°54.125 11.5237 3.504639 30.396287 1.193347
2010-05-17 07:07:14 51°16.31 2°54.123 11.5213 3.502108 30.370638 1.158523
2010-05-17 07:07:18 51°16.31 2°54.122 11.5234 3.505587 30.404772 1.158523
2010-05-17 07:07:24 51°16.31 2°54.12 11.5229 3.502003 30.369624 1.123699
2010-05-17 07:07:28 51°16.31 2°54.119 11.5299 3.502952 30.378107 1.158523
2010-05-17 07:07:34 51°16.31 2°54.117 11.5274 3.504849 30.397668 1.158523
2010-05-17 07:07:38 51°16.31 2°54.116 11.5284 3.504849 30.397668 1.158523
2010-05-17 07:07:44 51°16.31 2°54.114 11.5277 3.497575 30.327662 1.158523
2010-05-17 07:07:48 51°16.31 2°54.113 11.5302 3.497259 30.323325 1.193347
2010-05-17 07:07:54 51°16.31 2°54.112 11.5269 3.504638 30.394342 1.158523
2010-05-17 07:07:58 51°16.31 2°54.111 11.5298 3.50622 30.411509 1.088875
2010-05-17 07:08:04 51°16.309 2°54.109 11.5277 3.503373 30.383462 1.123699
2010-05-17 07:08:08 51°16.309 2°54.108 11.5257 3.503373 30.383462 1.123699
2010-05-17 07:08:14 51°16.309 2°54.106 11.5278 3.501159 30.361507 1.123699
2010-05-17 07:08:18 51°16.309 2°54.105 11.5273 3.496731 30.31696 1.158523
2010-05-17 07:08:24 51°16.309 2°54.104 11.5265 3.504006 30.387605 1.158523
2010-05-17 07:08:28 51°16.309 2°54.102 11.533 3.498629 30.335865 1.123699
2010-05-17 07:08:34 51°16.308 2°54.101 11.5317 3.502108 30.369342 1.123699
2010-05-17 07:08:38 51°16.308 2°54.1 11.5285 3.502108 30.369342 1.123699
2010-05-17 07:08:44 51°16.308 2°54.098 11.5286 3.506536 30.41066 1.158523
2010-05-17 07:08:48 51°16.308 2°54.097 11.5335 3.506009 30.405587 1.123699
2010-05-17 07:08:54 51°16.308 2°54.096 11.5316 3.502424 30.372386 1.158523
2010-05-17 07:08:58 51°16.308 2°54.095 11.5296 3.506009 30.407533 1.123699
2010-05-17 07:09:04 51°16.307 2°54.093 11.5291 3.505904 30.405869 1.123699
2010-05-17 07:09:08 51°16.307 2°54.092 11.528 3.505904 30.405869 1.123699
2010-05-17 07:09:14 51°16.307 2°54.09 11.5292 3.506114 30.40725 1.123699
2010-05-17 07:09:18 51°16.307 2°54.089 11.5306 3.505376 30.400147 1.088875
2010-05-17 07:09:24 51°16.306 2°54.088 11.5317 3.506325 30.409279 1.123699
2010-05-17 07:09:28 51°16.306 2°54.087 11.5304 3.506114 30.405953 1.088875
2010-05-17 07:09:34 51°16.306 2°54.085 11.5333 3.506642 30.410377 1.158523
2010-05-17 07:09:38 51°16.306 2°54.084 11.5325 3.506642 30.410377 1.158523
2010-05-17 07:09:44 51°16.306 2°54.083 11.5341 3.506325 30.408631 1.158523
2010-05-17 07:09:48 51°16.305 2°54.082 11.5342 3.505693 30.402543 1.123699
2010-05-17 07:09:54 51°16.305 2°54.08 11.5319 3.506642 30.411675 1.123699
2010-05-17 07:09:58 51°16.305 2°54.079 11.5323 3.506536 30.410011 1.123699
2010-05-17 07:10:04 51°16.305 2°54.078 11.5363 3.506114 30.405953 1.158523
2010-05-17 07:10:08 51°16.304 2°54.077 11.5361 3.506114 30.405953 1.158523
2010-05-17 07:10:14 51°16.304 2°54.075 11.5356 3.506536 30.41066 1.158523
2010-05-17 07:10:18 51°16.304 2°54.074 11.5395 3.506325 30.407982 1.158523
2010-05-17 07:10:24 51°16.304 2°54.073 11.5389 3.506114 30.404655 1.123699
2010-05-17 07:10:28 51°16.303 2°54.072 11.5384 3.506431 30.407699 1.123699
2010-05-17 07:10:34 51°16.303 2°54.071 11.5385 3.507063 30.415085 1.158523
2010-05-17 07:10:38 51°16.303 2°54.07 11.5395 3.507063 30.415085 1.158523
2010-05-17 07:10:44 51°16.302 2°54.068 11.5422 3.506431 30.407699 1.123699
2010-05-17 07:10:48 51°16.302 2°54.067 11.5418 3.505904 30.402626 1.158523
2010-05-17 07:10:54 51°16.302 2°54.066 11.5432 3.507063 30.413787 1.123699
2010-05-17 07:10:58 51°16.301 2°54.065 11.5428 3.50738 30.414884 1.088875
2010-05-17 07:11:04 51°16.301 2°54.064 11.5442 3.50759 30.416265 1.088875
2010-05-17 07:11:09 51°16.3 2°54.063 11.5465 3.50759 30.416265 1.088875
2010-05-17 07:11:14 51°16.3 2°54.062 11.5472 3.50759 30.415616 1.123699
2010-05-17 07:11:18 51°16.3 2°54.061 11.5466 3.507907 30.418011 1.088875
2010-05-17 07:11:24 51°16.3 2°54.06 11.5458 3.507801 30.415698 1.123699
2010-05-17 07:11:29 51°16.299 2°54.059 11.5462 3.508012 30.419674 1.123699
2010-05-17 07:11:33 51°16.299 2°54.058 11.547 3.508223 30.419108 1.123699
2010-05-17 07:11:38 51°16.299 2°54.057 11.5488 3.508223 30.419108 1.123699
2010-05-17 07:11:43 51°16.298 2°54.056 11.548 3.507801 30.414401 1.088875
2010-05-17 07:11:48 51°16.298 2°54.055 11.5494 3.508328 30.418176 1.088875
2010-05-17 07:11:54 51°16.297 2°54.054 11.5505 3.508328 30.418176 1.054051
2010-05-17 07:11:58 51°16.297 2°54.053 11.5489 3.508012 30.415781 1.123699
2010-05-17 07:12:03 51°16.296 2°54.052 11.5481 3.508434 30.417893 1.123699
2010-05-17 07:12:08 51°16.296 2°54.051 11.5496 3.508434 30.417893 1.123699
2010-05-17 07:12:13 51°16.296 2°54.05 11.548 3.508434 30.418541 1.088875
2010-05-17 07:12:18 51°16.295 2°54.049 11.5485 3.508117 30.414849 1.123699
2010-05-17 07:12:23 51°16.295 2°54.048 11.5486 3.508434 30.416595 1.088875
2010-05-17 07:12:28 51°16.295 2°54.047 11.5494 3.50875 30.420936 1.088875
2010-05-17 07:12:33 51°16.295 2°54.045 11.5474 3.508539 30.41761 1.088875
2010-05-17 07:12:38 51°16.296 2°54.044 11.5494 3.508539 30.41761 1.088875
2010-05-17 07:12:43 51°16.298 2°54.042 11.5467 3.508328 30.415581 1.123699
2010-05-17 07:12:48 51°16.3 2°54.041 11.5486 3.508434 30.416595 1.123699
2010-05-17 07:12:53 51°16.302 2°54.039 11.5464 3.508539 30.41761 1.088875
2010-05-17 07:12:58 51°16.305 2°54.036 11.5468 3.508855 30.421302 1.088875
2010-05-17 07:13:04 51°16.31 2°54.032 11.5469 3.508539 30.418258 1.123699
2010-05-17 07:13:19 51°16.325 2°54.021 11.548 3.509383 30.427023 1.088875
2010-05-17 07:13:24 51°16.331 2°54.016 11.5475 3.508223 30.416512 1.088875
2010-05-17 07:13:29 51°16.338 2°54.01 11.5484 3.508645 30.42057 1.054051
2010-05-17 07:13:35 51°16.347 2°54.003 11.5444 3.507907 30.414767 1.088875
2010-05-17 07:13:39 51°16.354 2°53.997 11.5449 3.508961 30.423614 1.088875
2010-05-17 07:13:44 51°16.363 2°53.99 11.5431 3.508961 30.423614 1.088875
2010-05-17 07:13:44 51°16.363 2°53.99 11.5431 3.508961 30.423614 1.088875
2010-05-17 07:13:59 51°16.393 2°53.964 11.5483 3.508961 30.424263 1.158523
2010-05-17 07:14:04 51°16.404 2°53.954 11.5439 3.508645 30.421868 1.088875
2010-05-17 07:14:09 51°16.416 2°53.944 11.5433 3.508855 30.423897 1.123699
2010-05-17 07:14:13 51°16.425 2°53.935 11.5437 3.508855 30.423897 1.123699
2010-05-17 07:14:19 51°16.44 2°53.923 11.5389 3.508539 30.4228 1.123699
2010-05-17 07:14:24 51°16.452 2°53.911 11.5405 3.507696 30.415981 1.088875
2010-05-17 07:14:29 51°16.465 2°53.9 11.5381 3.508434 30.421137 1.088875
2010-05-17 07:14:34 51°16.478 2°53.889 11.5369 3.508645 30.423815 1.088875
2010-05-17 07:14:39 51°16.49 2°53.875 11.5334 3.507696 30.414684 1.054051
2010-05-17 07:14:44 51°16.503 2°53.862 11.5381 3.507696 30.414684 1.054051
2010-05-17 07:14:49 51°16.515 2°53.848 11.5347 3.508328 30.420122 1.088875
2010-05-17 07:14:54 51°16.528 2°53.833 11.5383 3.508012 30.419025 1.019227
2010-05-17 07:14:59 51°16.541 2°53.818 11.5355 3.508012 30.420323 1.054051
2010-05-17 07:15:04 51°16.554 2°53.803 11.5335 3.508012 30.420972 1.054051
2010-05-17 07:15:09 51°16.568 2°53.787 11.5337 3.508118 30.424583 1.088875
2010-05-17 07:15:14 51°16.581 2°53.77 11.5342 3.508118 30.424583 1.088875
2010-05-17 07:15:19 51°16.595 2°53.754 11.5258 3.508223 30.426247 1.123699
2010-05-17 07:15:24 51°16.608 2°53.737 11.5314 3.508012 30.425516 1.123699
2010-05-17 07:15:29 51°16.622 2°53.72 11.528 3.508539 30.42994 1.123699
2010-05-17 07:15:34 51°16.636 2°53.703 11.5233 3.508118 30.42718 1.123699
2010-05-17 07:15:40 51°16.652 2°53.68 11.5258 3.508223 30.427545 1.088875
2010-05-17 07:15:44 51°16.663 2°53.665 11.5271 3.508223 30.427545 1.088875
2010-05-17 07:15:49 51°16.677 2°53.646 11.5262 3.508012 30.426165 1.123699
2010-05-17 07:15:54 51°16.69 2°53.626 11.5307 3.508645 30.432903 1.123699
2010-05-17 07:16:00 51°16.707 2°53.602 11.5311 3.50875 30.437166 1.088875
2010-05-17 07:16:04 51°16.718 2°53.586 11.533 3.509383 30.442606 1.123699
2010-05-17 07:16:09 51°16.731 2°53.567 11.5312 3.509594 30.445935 1.054051
2010-05-17 07:16:14 51°16.745 2°53.546 11.5286 3.509594 30.445935 1.054051
2010-05-17 07:16:19 51°16.758 2°53.526 11.5287 3.509172 30.443824 1.054051
2010-05-17 07:16:24 51°16.772 2°53.505 11.528 3.509594 30.446585 1.054051
2010-05-17 07:16:29 51°16.786 2°53.486 11.5293 3.510226 30.453976 1.088875
2010-05-17 07:16:33 51°16.797 2°53.469 11.5281 3.510121 30.451661 1.054051
2010-05-17 07:16:39 51°16.814 2°53.445 11.5213 3.510121 30.450361 1.123699
2010-05-17 07:16:44 51°16.828 2°53.425 11.5216 3.510121 30.450361 1.123699
2010-05-17 07:16:49 51°16.841 2°53.404 11.5164 3.510648 30.456086 1.193347
2010-05-17 07:16:54 51°16.855 2°53.384 11.5201 3.510753 30.457101 1.367467
2010-05-17 07:17:00 51°16.871 2°53.358 11.5193 3.51107 30.459496 1.437116
2010-05-17 07:17:04 51°16.882 2°53.341 11.5201 3.511386 30.463842 1.506764
2010-05-17 07:17:09 51°16.894 2°53.32 11.5205 3.512229 30.472614 1.611236
2010-05-17 07:17:14 51°16.907 2°53.299 11.5251 3.512229 30.472614 1.611236
2010-05-17 07:17:20 51°16.922 2°53.274 11.5256 3.512757 30.479641 1.680884
2010-05-17 07:17:24 51°16.932 2°53.258 11.5287 3.512967 30.482973 1.750532
2010-05-17 07:17:30 51°16.946 2°53.233 11.5305 3.512651 30.48253 1.750532
2010-05-17 07:17:34 51°16.956 2°53.217 11.5318 3.51244 30.480499 1.785356
2010-05-17 07:17:40 51°16.971 2°53.192 11.5305 3.512757 30.484196 1.750532
2010-05-17 07:17:44 51°16.98 2°53.175 11.5281 3.512757 30.484196 1.750532
2010-05-17 07:17:49 51°16.992 2°53.154 11.5262 3.512967 30.486227 1.785356
2010-05-17 07:17:54 51°17.003 2°53.132 11.5226 3.512862 30.48391 1.750532
2010-05-17 07:17:59 51°17.015 2°53.11 11.5189 3.512967 30.483624 1.750532
2010-05-17 07:18:04 51°17.026 2°53.087 11.5142 3.513178 30.484353 1.785356
2010-05-17 07:18:09 51°17.037 2°53.064 11.4996 3.513916 30.488207 1.715708
2010-05-17 07:18:14 51°17.048 2°53.041 11.4934 3.513916 30.488207 1.715708
2010-05-17 07:18:19 51°17.059 2°53.018 11.4863 3.514443 30.493934 1.715708
2010-05-17 07:18:24 51°17.071 2°52.994 11.4797 3.515076 30.499375 1.785356
2010-05-17 07:18:29 51°17.082 2°52.971 11.4704 3.515181 30.502344 1.680884
2010-05-17 07:18:34 51°17.094 2°52.948 11.4656 3.516552 30.516847 1.715708
2010-05-17 07:18:39 51°17.106 2°52.925 11.4652 3.518028 30.534975 1.715708
2010-05-17 07:18:44 51°17.118 2°52.902 11.455 3.518028 30.534975 1.715708
2010-05-17 07:18:49 51°17.131 2°52.879 11.4581 3.51982 30.557461 1.750532
2010-05-17 07:18:54 51°17.143 2°52.856 11.4571 3.520769 30.57444 1.715708
2010-05-17 07:19:00 51°17.159 2°52.829 11.45 3.522773 30.596364 1.785356
2010-05-17 07:19:04 51°17.169 2°52.811 11.4477 3.523722 30.615322 1.750532
2010-05-17 07:19:09 51°17.182 2°52.788 11.4499 3.524881 30.629125 1.785356
2010-05-17 07:19:14 51°17.194 2°52.765 11.451 3.524881 30.629125 1.785356
2010-05-17 07:19:19 51°17.206 2°52.742 11.4501 3.526147 30.647879 1.855004
2010-05-17 07:19:24 51°17.219 2°52.719 11.4493 3.527096 30.661623 1.889828
2010-05-17 07:19:30 51°17.234 2°52.691 11.4525 3.526885 30.665489 1.924652
2010-05-17 07:19:34 51°17.244 2°52.673 11.4504 3.527412 30.672545 2.063949
2010-05-17 07:19:39 51°17.256 2°52.65 11.4532 3.527623 30.679173 2.063949
2010-05-17 07:19:45 51°17.271 2°52.623 11.4528 3.527623 30.679173 2.063949
2010-05-17 07:19:49 51°17.281 2°52.605 11.4549 3.527939 30.683539 2.133597
2010-05-17 07:19:54 51°17.293 2°52.582 11.4527 3.527623 30.680486 2.238069
2010-05-17 07:20:00 51°17.308 2°52.555 11.4544 3.527623 30.682455 2.342541
2010-05-17 07:20:04 51°17.318 2°52.536 11.4521 3.527623 30.683111 2.412189
2010-05-17 07:20:10 51°17.333 2°52.509 11.4512 3.527307 30.679401 2.481837
2010-05-17 07:20:14 51°17.343 2°52.49 11.4519 3.527307 30.679401 2.481837
2010-05-17 07:20:20 51°17.357 2°52.463 11.4538 3.527096 30.677365 2.447013
2010-05-17 07:20:24 51°17.367 2°52.444 11.4476 3.527518 30.680124 2.586309
2010-05-17 07:20:30 51°17.382 2°52.416 11.4477 3.527096 30.676709 2.586309
2010-05-17 07:20:34 51°17.392 2°52.397 11.4479 3.526674 30.671981 2.621133
2010-05-17 07:20:40 51°17.406 2°52.37 11.4473 3.52678 30.673655 2.655957
2010-05-17 07:20:44 51°17.417 2°52.351 11.4476 3.52678 30.673655 2.655957
2010-05-17 07:20:49 51°17.429 2°52.329 11.4422 3.526569 30.671619 2.621133
2010-05-17 07:20:54 51°17.442 2°52.306 11.4418 3.52699 30.677003 2.447013
2010-05-17 07:21:00 51°17.457 2°52.278 11.4406 3.52699 30.677003 2.342541
2010-05-17 07:21:04 51°17.466 2°52.26 11.4398 3.527412 30.681075 2.307717
2010-05-17 07:21:10 51°17.482 2°52.233 11.4394 3.524776 30.656939 2.168421
2010-05-17 07:21:14 51°17.493 2°52.216 11.4388 3.524776 30.656939 2.168421
2010-05-17 07:21:19 51°17.507 2°52.194 11.4331 3.528256 30.687906 2.133597
2010-05-17 07:21:24 51°17.52 2°52.173 11.4328 3.527939 30.689448 2.063949
2010-05-17 07:21:30 51°17.537 2°52.148 11.4246 3.528467 30.697166 1.924652
2010-05-17 07:21:34 51°17.548 2°52.131 11.4205 3.528256 30.695786 1.959476
2010-05-17 07:21:40 51°17.565 2°52.107 11.4234 3.528783 30.702192 1.924652
2010-05-17 07:21:44 51°17.575 2°52.09 11.4182 3.528783 30.702192 1.924652
2010-05-17 07:21:50 51°17.592 2°52.065 11.4088 3.52931 30.708598 1.785356
2010-05-17 07:21:53 51°17.6 2°52.052 11.4078 3.529732 30.713986 1.82018
2010-05-17 07:22:00 51°17.619 2°52.023 11.4132 3.529626 30.714282 1.750532
2010-05-17 07:22:04 51°17.63 2°52.006 11.4038 3.530575 30.722791 1.680884
2010-05-17 07:22:09 51°17.643 2°51.985 11.4016 3.530997 30.732786 1.611236
2010-05-17 07:22:14 51°17.657 2°51.964 11.404 3.530997 30.732786 1.611236
2010-05-17 07:22:19 51°17.67 2°51.943 11.403 3.531313 30.739132 1.64606
2010-05-17 07:22:24 51°17.683 2°51.923 11.4037 3.53163 30.746139 1.64606
2010-05-17 07:22:30 51°17.7 2°51.898 11.4007 3.532684 30.76094 1.576412
2010-05-17 07:22:34 51°17.711 2°51.882 11.4018 3.532368 30.759859 1.611236
2010-05-17 07:22:39 51°17.724 2°51.861 11.3971 3.532895 30.767591 1.576412
2010-05-17 07:22:44 51°17.738 2°51.841 11.3971 3.532895 30.767591 1.576412
2010-05-17 07:22:50 51°17.754 2°51.816 11.3903 3.533422 30.774006 1.541588
2010-05-17 07:22:54 51°17.765 2°51.799 11.3889 3.532579 30.769147 1.576412
2010-05-17 07:23:00 51°17.781 2°51.774 11.3914 3.533739 30.780362 1.576412
2010-05-17 07:23:04 51°17.792 2°51.758 11.381 3.533528 30.780961 1.541588
2010-05-17 07:23:09 51°17.806 2°51.738 11.3864 3.534371 30.787798 1.611236
2010-05-17 07:23:14 51°17.821 2°51.72 11.3696 3.534371 30.787798 1.611236
2010-05-17 07:23:20 51°17.838 2°51.697 11.3669 3.534688 30.792837 1.576412
2010-05-17 07:23:24 51°17.85 2°51.683 11.3604 3.534688 30.794156 1.611236
2010-05-17 07:23:30 51°17.868 2°51.662 11.3535 3.535004 30.800516 1.611236
2010-05-17 07:23:34 51°17.881 2°51.648 11.3525 3.534793 30.801117 1.611236
2010-05-17 07:23:40 51°17.899 2°51.628 11.3419 3.535215 30.806517 1.576412
2010-05-17 07:23:44 51°17.911 2°51.614 11.3412 3.535215 30.806517 1.576412
2010-05-17 07:23:49 51°17.927 2°51.598 11.3403 3.535953 30.8163 1.506764
2010-05-17 07:23:54 51°17.943 2°51.581 11.3357 3.536375 30.823023 1.437116
2010-05-17 07:24:00 51°17.962 2°51.561 11.3326 3.537324 30.838817 1.402292
2010-05-17 07:24:04 51°17.974 2°51.548 11.3317 3.53764 30.847833 1.367467
2010-05-17 07:24:10 51°17.993 2°51.528 11.3271 3.538167 30.856908 1.332643
2010-05-17 07:24:14 51°18.006 2°51.515 11.3287 3.538167 30.856908 1.332643
2010-05-17 07:24:20 51°18.025 2°51.495 11.325 3.538484 30.864605 1.367467
2010-05-17 07:24:24 51°18.038 2°51.482 11.3217 3.539116 30.875369 1.437116
2010-05-17 07:24:30 51°18.057 2°51.462 11.3177 3.539538 30.885419 1.506764
2010-05-17 07:24:34 51°18.069 2°51.449 11.3163 3.539749 30.889451 1.611236
2010-05-17 07:24:40 51°18.088 2°51.429 11.3177 3.540171 30.898844 1.64606
2010-05-17 07:24:44 51°18.1 2°51.415 11.3177 3.540171 30.898844 1.64606
2010-05-17 07:24:50 51°18.118 2°51.396 11.3177 3.540803 30.905638 1.680884
2010-05-17 07:24:54 51°18.13 2°51.383 11.3076 3.54112 30.911358 1.750532
2010-05-17 07:25:00 51°18.148 2°51.363 11.3007 3.541647 30.919787 1.750532
2010-05-17 07:25:04 51°18.16 2°51.35 11.3022 3.542385 30.929599 1.715708
2010-05-17 07:25:10 51°18.176 2°51.332 11.3076 3.542807 30.935681 1.750532
2010-05-17 07:25:14 51°18.187 2°51.32 11.3034 3.542807 30.935681 1.750532
2010-05-17 07:25:20 51°18.202 2°51.304 11.298 3.543545 30.94483 1.715708
2010-05-17 07:25:24 51°18.211 2°51.293 11.3047 3.543756 30.94887 1.750532
2010-05-17 07:25:30 51°18.224 2°51.278 11.3027 3.544072 30.953267 1.750532
2010-05-17 07:25:34 51°18.232 2°51.269 11.3037 3.544388 30.960325 1.750532
2010-05-17 07:25:40 51°18.244 2°51.255 11.3025 3.545126 30.96948 1.82018
2010-05-17 07:25:44 51°18.252 2°51.246 11.302 3.545126 30.96948 1.82018
2010-05-17 07:25:50 51°18.263 2°51.234 11.3036 3.545232 30.971834 1.924652
2010-05-17 07:25:54 51°18.269 2°51.225 11.296 3.545337 30.972857 1.9943
2010-05-17 07:26:00 51°18.279 2°51.214 11.2952 3.545232 30.973831 2.098773
2010-05-17 07:26:04 51°18.285 2°51.206 11.2928 3.545021 30.972451 2.133597
2010-05-17 07:26:10 51°18.294 2°51.195 11.2947 3.545127 30.973474 2.133597
2010-05-17 07:26:14 51°18.299 2°51.189 11.2944 3.545127 30.973474 2.133597
2010-05-17 07:26:20 51°18.307 2°51.179 11.2938 3.545127 30.975471 2.168421
2010-05-17 07:26:24 51°18.312 2°51.174 11.293 3.545337 30.976851 2.133597
2010-05-17 07:26:29 51°18.318 2°51.167 11.2949 3.545232 30.977159 2.098773
2010-05-17 07:26:34 51°18.325 2°51.162 11.2963 3.545337 30.98018 2.098773
2010-05-17 07:26:40 51°18.332 2°51.156 11.2977 3.546286 30.99072 2.098773
2010-05-17 07:26:44 51°18.337 2°51.153 11.2962 3.546286 30.99072 2.098773
2010-05-17 07:26:50 51°18.344 2°51.148 11.2958 3.545654 30.985913 2.098773
2010-05-17 07:26:54 51°18.349 2°51.144 11.2946 3.545654 30.987246 2.063949
2010-05-17 07:27:00 51°18.356 2°51.14 11.2952 3.545654 30.988578 2.063949
2010-05-17 07:27:04 51°18.36 2°51.137 11.2946 3.545865 30.989958 2.063949
2010-05-17 07:27:10 51°18.367 2°51.133 11.2942 3.546076 30.991339 2.063949
2010-05-17 07:27:14 51°18.371 2°51.13 11.295 3.546076 30.991339 2.063949
2010-05-17 07:27:20 51°18.377 2°51.125 11.2951 3.546286 30.992719 2.098773
2010-05-17 07:27:24 51°18.381 2°51.122 11.2957 3.546076 30.98934 2.063949
2010-05-17 07:27:30 51°18.387 2°51.117 11.2944 3.546497 30.994099 2.029124
2010-05-17 07:27:34 51°18.391 2°51.113 11.2961 3.546392 30.993742 2.029124
2010-05-17 07:27:40 51°18.397 2°51.108 11.291 3.546286 30.992719 2.029124
2010-05-17 07:27:44 51°18.4 2°51.104 11.2926 3.546286 30.992719 2.029124
2010-05-17 07:27:49 51°18.405 2°51.099 11.2893 3.547024 31.001881 1.9943
2010-05-17 07:27:54 51°18.409 2°51.094 11.2888 3.546497 30.996098 1.9943
2010-05-17 07:28:00 51°18.414 2°51.088 11.2925 3.54713 31.002904 1.9943
2010-05-17 07:28:04 51°18.418 2°51.084 11.2967 3.547024 31.001214 1.959476
2010-05-17 07:28:10 51°18.423 2°51.078 11.2917 3.54713 31.002237 1.9943
2010-05-17 07:28:14 51°18.426 2°51.074 11.2926 3.54713 31.002237 1.9943
2010-05-17 07:28:20 51°18.431 2°51.068 11.2899 3.547446 31.005974 1.959476
2010-05-17 07:28:24 51°18.435 2°51.064 11.2871 3.547657 31.010021 2.029124
2010-05-17 07:28:30 51°18.44 2°51.059 11.2888 3.547657 31.010021 1.959476
2010-05-17 07:28:34 51°18.443 2°51.055 11.2928 3.547657 31.009354 1.924652
2010-05-17 07:28:40 51°18.448 2°51.05 11.2906 3.547973 31.013091 1.924652
2010-05-17 07:28:44 51°18.451 2°51.047 11.2911 3.547973 31.013091 1.924652
2010-05-17 07:28:50 51°18.457 2°51.042 11.2907 3.547973 31.011757 1.924652
2010-05-17 07:28:54 51°18.46 2°51.038 11.2867 3.548711 31.020255 1.959476
2010-05-17 07:29:00 51°18.465 2°51.033 11.2911 3.548711 31.020255 1.924652
2010-05-17 07:29:04 51°18.468 2°51.031 11.2902 3.548395 31.019185 1.924652
2010-05-17 07:29:10 51°18.472 2°51.026 11.2883 3.548606 31.020565 1.959476
2010-05-17 07:29:13 51°18.474 2°51.024 11.2848 3.548606 31.020565 1.959476
2010-05-17 07:29:20 51°18.479 2°51.02 11.2842 3.548606 31.020565 1.959476
2010-05-17 07:29:24 51°18.481 2°51.017 11.2827 3.548606 31.019898 1.924652
2010-05-17 07:29:29 51°18.484 2°51.014 11.2832 3.548711 31.022923 1.9943
2010-05-17 07:29:34 51°18.486 2°51.011 11.2859 3.548501 31.020876 1.924652
2010-05-17 07:29:40 51°18.488 2°51.008 11.2867 3.548395 31.019185 1.924652
2010-05-17 07:29:44 51°18.49 2°51.006 11.2824 3.548395 31.019185 1.924652
2010-05-17 07:29:50 51°18.491 2°51.003 11.2842 3.54829 31.018829 1.959476
2010-05-17 07:29:54 51°18.492 2°51.002 11.2858 3.548501 31.02221 1.959476
2010-05-17 07:30:00 51°18.494 2°50.999 11.2874 3.548501 31.022877 1.959476
2010-05-17 07:30:05 51°18.495 2°50.997 11.2812 3.548395 31.021186 1.889828
2010-05-17 07:30:10 51°18.496 2°50.995 11.2798 3.548395 31.021186 1.889828
2010-05-17 07:30:14 51°18.496 2°50.994 11.2762 3.548395 31.021186 1.889828
2010-05-17 07:30:20 51°18.497 2°50.991 11.2789 3.548501 31.024211 1.855004
2010-05-17 07:30:24 51°18.498 2°50.99 11.2746 3.548184 31.021808 1.82018
2010-05-17 07:30:30 51°18.499 2°50.987 11.2769 3.548712 31.025591 1.855004
2010-05-17 07:30:34 51°18.5 2°50.986 11.2765 3.548817 31.02795 1.785356
2010-05-17 07:30:40 51°18.5 2°50.983 11.2789 3.54945 31.033424 1.715708
2010-05-17 07:30:44 51°18.501 2°50.982 11.2738 3.54945 31.033424 1.715708
2010-05-17 07:30:50 51°18.502 2°50.979 11.2717 3.544178 30.984246 1.750532
2010-05-17 07:30:54 51°18.502 2°50.978 11.2739 3.54945 31.036762 1.715708
2010-05-17 07:31:00 51°18.503 2°50.975 11.2731 3.549239 31.035382 1.750532
2010-05-17 07:31:04 51°18.503 2°50.974 11.2712 3.549133 31.037028 1.715708
2010-05-17 07:31:10 51°18.504 2°50.971 11.2718 3.549028 31.036672 1.750532
2010-05-17 07:31:14 51°18.504 2°50.97 11.271 3.549028 31.036672 1.750532
2010-05-17 07:31:20 51°18.505 2°50.967 11.27 3.548922 31.034981 1.785356
2010-05-17 07:31:24 51°18.505 2°50.966 11.27 3.549028 31.035337 1.715708
2010-05-17 07:31:30 51°18.505 2°50.963 11.2717 3.549344 31.039744 1.785356
2010-05-17 07:31:34 51°18.506 2°50.962 11.2708 3.54945 31.041435 1.750532
2010-05-17 07:31:40 51°18.506 2°50.959 11.2687 3.549239 31.041391 1.715708
2010-05-17 07:31:44 51°18.506 2°50.958 11.2685 3.549239 31.041391 1.715708
2010-05-17 07:31:50 51°18.507 2°50.955 11.2694 3.549344 31.042415 1.82018
2010-05-17 07:31:54 51°18.507 2°50.954 11.2716 3.549239 31.041391 1.785356
2010-05-17 07:32:00 51°18.507 2°50.952 11.2694 3.549661 31.046823 1.855004
2010-05-17 07:32:04 51°18.507 2°50.95 11.269 3.549344 31.043751 1.785356
2010-05-17 07:32:10 51°18.508 2°50.948 11.2692 3.54945 31.044775 1.82018
2010-05-17 07:32:14 51°18.508 2°50.946 11.2668 3.54945 31.044775 1.82018
2010-05-17 07:32:19 51°18.508 2°50.944 11.268 3.549028 31.040011 1.82018
2010-05-17 07:32:24 51°18.508 2°50.943 11.2673 3.543756 30.99015 1.785356
2010-05-17 07:32:30 51°18.508 2°50.941 11.2685 3.549133 31.043038 1.750532
2010-05-17 07:32:33 51°18.508 2°50.94 11.2675 3.549133 31.042371 1.82018
2010-05-17 07:32:39 51°18.508 2°50.937 11.2695 3.549344 31.047091 1.82018
2010-05-17 07:32:44 51°18.508 2°50.936 11.2719 3.549344 31.047091 1.82018
2010-05-17 07:32:49 51°18.508 2°50.934 11.2706 3.54945 31.046779 1.785356
2010-05-17 07:32:54 51°18.508 2°50.933 11.272 3.549977 31.052568 1.82018
2010-05-17 07:33:00 51°18.509 2°50.931 11.2713 3.549239 31.046067 1.82018
2010-05-17 07:33:04 51°18.508 2°50.929 11.2729 3.549555 31.047803 1.855004
2010-05-17 07:33:09 51°18.508 2°50.928 11.2717 3.549028 31.044686 1.82018
2010-05-17 07:33:14 51°18.508 2°50.927 11.2697 3.549028 31.044686 1.82018
2010-05-17 07:33:19 51°18.508 2°50.925 11.2679 3.549344 31.047091 1.82018
2010-05-17 07:33:24 51°18.508 2°50.924 11.2719 3.549344 31.045755 1.82018
2010-05-17 07:33:29 51°18.508 2°50.922 11.2692 3.54945 31.046779 1.785356
2010-05-17 07:33:33 51°18.508 2°50.921 11.2713 3.549344 31.045755 1.855004
2010-05-17 07:33:39 51°18.508 2°50.919 11.2695 3.549344 31.045087 1.889828
2010-05-17 07:33:44 51°18.508 2°50.918 11.2683 3.549344 31.045087 1.889828
2010-05-17 07:33:49 51°18.508 2°50.916 11.2675 3.54945 31.046111 1.855004
2010-05-17 07:33:54 51°18.509 2°50.914 11.2675 3.549661 31.047491 1.82018
2010-05-17 07:33:59 51°18.509 2°50.913 11.2674 3.549766 31.047847 1.82018
2010-05-17 07:34:04 51°18.51 2°50.91 11.266 3.549766 31.049183 1.855004
2010-05-17 07:34:09 51°18.512 2°50.908 11.2673 3.549555 31.046467 1.785356
2010-05-17 07:34:15 51°18.515 2°50.904 11.2697 3.549555 31.046467 1.785356
2010-05-17 07:34:20 51°18.517 2°50.901 11.272 3.549661 31.049495 1.785356
2010-05-17 07:34:24 51°18.52 2°50.899 11.2723 3.54945 31.045443 1.855004
2010-05-17 07:34:30 51°18.525 2°50.895 11.2805 3.549661 31.048827 1.889828
2010-05-17 07:34:34 51°18.529 2°50.893 11.2757 3.549555 31.048471 1.82018
2010-05-17 07:34:40 51°18.536 2°50.889 11.2738 3.54945 31.048115 1.855004
2010-05-17 07:34:44 51°18.54 2°50.888 11.2731 3.54945 31.048115 1.855004
2010-05-17 07:34:50 51°18.549 2°50.887 11.2789 3.549133 31.045042 1.785356
2010-05-17 07:34:54 51°18.554 2°50.887 11.2739 3.549239 31.046067 1.82018
2010-05-17 07:35:00 51°18.563 2°50.889 11.2741 3.549344 31.046423 1.82018
2010-05-17 07:35:04 51°18.569 2°50.892 11.2729 3.549555 31.047135 1.82018
2010-05-17 07:35:10 51°18.578 2°50.898 11.2749 3.549239 31.041391 1.82018
2010-05-17 07:35:14 51°18.584 2°50.904 11.2708 3.549239 31.041391 1.82018
2010-05-17 07:35:20 51°18.593 2°50.914 11.2738 3.549661 31.045487 1.82018
2010-05-17 07:35:24 51°18.599 2°50.923 11.2744 3.549871 31.046867 1.785356
2010-05-17 07:35:30 51°18.608 2°50.937 11.273 3.549766 31.045843 1.82018
2010-05-17 07:35:34 51°18.613 2°50.949 11.2693 3.549661 31.044819 1.785356
2010-05-17 07:35:40 51°18.621 2°50.967 11.2673 3.549766 31.045843 1.785356
2010-05-17 07:35:44 51°18.626 2°50.98 11.2637 3.549766 31.045843 1.785356
2010-05-17 07:35:50 51°18.635 2°50.999 11.2682 3.550188 31.049939 1.750532
2010-05-17 07:35:54 51°18.64 2°51.012 11.2647 3.550399 31.053323 1.785356
2010-05-17 07:36:00 51°18.649 2°51.033 11.2558 3.550399 31.051987 1.750532
2010-05-17 07:36:04 51°18.655 2°51.047 11.2616 3.549871 31.046867 1.785356
2010-05-17 07:36:10 51°18.664 2°51.069 11.2596 3.549977 31.047223 1.82018
2010-05-17 07:36:14 51°18.67 2°51.084 11.2607 3.549977 31.047223 1.82018
2010-05-17 07:36:20 51°18.679 2°51.107 11.2642 3.549661 31.046155 1.82018
2010-05-17 07:36:24 51°18.685 2°51.124 11.2647 3.549766 31.048515 1.924652
2010-05-17 07:36:29 51°18.693 2°51.144 11.2625 3.548923 31.042326 1.9943
2010-05-17 07:36:34 51°18.701 2°51.165 11.2638 3.548923 31.044998 2.029124
2010-05-17 07:36:40 51°18.711 2°51.191 11.2722 3.548395 31.040545 2.063949
2010-05-17 07:36:44 51°18.716 2°51.21 11.2632 3.548395 31.040545 2.063949
2010-05-17 07:36:49 51°18.724 2°51.233 11.2682 3.54829 31.043529 2.063949
2010-05-17 07:36:54 51°18.73 2°51.258 11.2705 3.547763 31.03774 2.098773
2010-05-17 07:36:59 51°18.736 2°51.282 11.2673 3.547447 31.035335 2.133597
2010-05-17 07:37:04 51°18.742 2°51.308 11.2699 3.547447 31.032663 2.133597
2010-05-17 07:37:09 51°18.747 2°51.334 11.2711 3.546919 31.02821 2.063949
2010-05-17 07:37:14 51°18.753 2°51.359 11.28 3.546919 31.02821 2.063949
2010-05-17 07:37:19 51°18.757 2°51.386 11.2765 3.547025 31.026563 2.133597
2010-05-17 07:37:24 51°18.763 2°51.411 11.2828 3.547025 31.023893 2.063949
2010-05-17 07:37:29 51°18.767 2°51.438 11.2824 3.546814 31.02318 2.063949
2010-05-17 07:37:34 51°18.773 2°51.464 11.2876 3.546708 31.021488 2.098773
2010-05-17 07:37:39 51°18.777 2°51.491 11.2879 3.546498 31.018773 2.133597
2010-05-17 07:37:44 51°18.782 2°51.517 11.2867 3.546498 31.018773 2.133597
2010-05-17 07:37:49 51°18.786 2°51.543 11.2909 3.546287 31.01539 2.063949
2010-05-17 07:37:53 51°18.79 2°51.565 11.2916 3.546076 31.012675 2.029124
2010-05-17 07:37:59 51°18.796 2°51.597 11.297 3.546181 31.01103 2.029124
2010-05-17 07:38:04 51°18.801 2°51.623 11.2984 3.545865 31.005957 2.029124
2010-05-17 07:38:09 51°18.805 2°51.65 11.2997 3.545865 31.003957 2.063949
2010-05-17 07:38:14 51°18.81 2°51.675 11.3015 3.545865 31.003957 2.063949
2010-05-17 07:38:19 51°18.815 2°51.702 11.3009 3.545443 30.997862 2.063949
2010-05-17 07:38:25 51°18.821 2°51.734 11.3015 3.54481 30.991054 2.098773
2010-05-17 07:38:30 51°18.826 2°51.761 11.3046 3.5446 30.987007 2.098773
2010-05-17 07:38:34 51°18.83 2°51.782 11.305 3.544705 30.985365 2.133597
2010-05-17 07:38:40 51°18.835 2°51.814 11.3026 3.544072 30.977226 2.063949
2010-05-17 07:38:44 51°18.839 2°51.835 11.3033 3.544072 30.977226 2.063949
2010-05-17 07:38:50 51°18.845 2°51.867 11.3039 3.543545 30.970778 2.063949
2010-05-17 07:38:54 51°18.849 2°51.889 11.3076 3.543756 30.972159 2.029124
2010-05-17 07:39:00 51°18.855 2°51.921 11.3034 3.543861 30.969852 1.9943
2010-05-17 07:39:04 51°18.859 2°51.942 11.3057 3.543545 30.966117 1.9943
2010-05-17 07:39:10 51°18.865 2°51.974 11.3093 3.543967 30.968878 2.029124
2010-05-17 07:39:14 51°18.869 2°51.995 11.3028 3.543967 30.968878 2.029124
2010-05-17 07:39:20 51°18.875 2°52.027 11.3058 3.543545 30.96412 1.9943
2010-05-17 07:39:24 51°18.879 2°52.048 11.3043 3.543651 30.965143 1.924652
2010-05-17 07:39:30 51°18.885 2°52.079 11.3041 3.543334 30.960743 1.924652
2010-05-17 07:39:34 51°18.889 2°52.101 11.3065 3.543545 30.962789 1.855004
2010-05-17 07:39:40 51°18.896 2°52.132 11.3076 3.54344 30.962432 1.855004
2010-05-17 07:39:44 51°18.899 2°52.153 11.3053 3.54344 30.962432 1.855004
2010-05-17 07:39:50 51°18.905 2°52.185 11.3033 3.543229 30.95972 1.855004
2010-05-17 07:39:54 51°18.909 2°52.206 11.3053 3.543229 30.95839 1.785356
2010-05-17 07:40:00 51°18.915 2°52.238 11.3053 3.543229 30.959055 1.785356
2010-05-17 07:40:04 51°18.919 2°52.258 11.3074 3.543123 30.958697 1.750532
2010-05-17 07:40:10 51°18.925 2°52.29 11.3045 3.543123 30.958697 1.785356
2010-05-17 07:40:14 51°18.929 2°52.311 11.307 3.543123 30.958697 1.785356
2010-05-17 07:40:20 51°18.936 2°52.342 11.3064 3.543229 30.959055 1.750532
2010-05-17 07:40:24 51°18.939 2°52.364 11.3045 3.543123 30.956701 1.750532
2010-05-17 07:40:30 51°18.945 2°52.395 11.3047 3.542912 30.955321 1.715708
2010-05-17 07:40:34 51°18.95 2°52.416 11.3071 3.543018 30.957009 1.715708
2010-05-17 07:40:39 51°18.955 2°52.442 11.3054 3.543018 30.956344 1.680884
2010-05-17 07:40:44 51°18.961 2°52.468 11.3106 3.543018 30.956344 1.680884
2010-05-17 07:40:49 51°18.965 2°52.494 11.3076 3.543334 30.960078 1.715708
2010-05-17 07:40:54 51°18.971 2°52.52 11.3143 3.543229 30.959055 1.680884
2010-05-17 07:41:00 51°18.977 2°52.552 11.3137 3.543018 30.957009 1.680884
2010-05-17 07:41:04 51°18.981 2°52.573 11.3105 3.543123 30.958032 1.680884
2010-05-17 07:41:10 51°18.988 2°52.605 11.3121 3.543123 30.957367 1.680884
2010-05-17 07:41:14 51°18.992 2°52.626 11.3152 3.543123 30.957367 1.680884
2010-05-17 07:41:20 51°18.998 2°52.658 11.3128 3.54344 30.960435 1.680884
2010-05-17 07:41:24 51°19.002 2°52.68 11.3162 3.543545 30.961458 1.64606
2010-05-17 07:41:30 51°19.009 2°52.711 11.3152 3.543756 30.96417 1.611236
2010-05-17 07:41:34 51°19.013 2°52.733 11.3157 3.543756 30.961508 1.64606
2010-05-17 07:41:40 51°19.02 2°52.765 11.314 3.54344 30.956443 1.611236
2010-05-17 07:41:44 51°19.024 2°52.786 11.3167 3.54344 30.956443 1.611236
2010-05-17 07:41:50 51°19.03 2°52.818 11.3134 3.543861 30.959869 1.611236
2010-05-17 07:41:54 51°19.035 2°52.839 11.3129 3.543967 30.960226 1.541588
2010-05-17 07:42:00 51°19.041 2°52.871 11.3123 3.54365 30.957823 1.506764
2010-05-17 07:42:04 51°19.045 2°52.892 11.3156 3.543861 30.958538 1.541588
2010-05-17 07:42:10 51°19.051 2°52.924 11.3119 3.54365 30.956493 1.576412
2010-05-17 07:42:14 51°19.055 2°52.945 11.3159 3.54365 30.956493 1.576412
2010-05-17 07:42:20 51°19.062 2°52.977 11.3168 3.54344 30.954447 1.506764
2010-05-17 07:42:24 51°19.066 2°52.998 11.3186 3.543545 30.954805 1.47194
2010-05-17 07:42:30 51°19.072 2°53.03 11.3225 3.543334 30.952759 1.437116
2010-05-17 07:42:34 51°19.077 2°53.052 11.3201 3.543334 30.953425 1.437116
2010-05-17 07:42:39 51°19.082 2°53.078 11.3199 3.542596 30.945601 1.367467
2010-05-17 07:42:44 51°19.088 2°53.104 11.3197 3.542596 30.945601 1.367467